PORTS® Data Listing: 8516945 Kings Point, NY

CO-OPS RAW PORTS DATA

************************      PRELIMINARY DATA      ************************** 

     THIS RAW DATA HAS NOT BEEN SUBJECT TO THE NATIONAL OCEAN SERVICE'S        
     QUALITY CONTROL OR QUALITY ASSURANCE PROCEDURES AND DOES NOT MEET         
     THE CRITERIA AND STANDARDS OF OFFICIAL NATIONAL OCEAN SERVICE             
     DATA.  IT IS RELEASED FOR LIMITED PUBLIC USE AS PRELIMINARY DATA TO       
     BE USED ONLY WITH APPROPRIATE CAUTION.                                    

************************      PRELIMINARY DATA      ************************** 


       CD   -   Calendar date
       T    -   Time
       TZ   -   Timezone
       PW   -   Predicted water level (feet above MLLW)
       OW   -   Observed water level (feet above MLLW)
       WS   -   Wind speed (knots)
       WD   -   Wind direction (degrees true)
       WG   -   Wind gust (knots)
       AT   -   Air temperature (degrees farenheit)
       WT   -   Water temperature (degrees farenheit)
       AP   -   Air pressure (millibars)
       SA   -   Salinty (PSU - Practical Salinity Units)
       SG   -   Specific gravity
       RH   -   Relative humidity
       AG   -   Air gap (feet)
       VI   -   Visibility (nautical miles)

       ** NOTE **
       A variable that has its data fields filled with "9"s, indicates that
       data was not collected for that sample period.
       **********


STATION NAME: Kings Point (8516945)
****************************************************************************************************
    CD       T    TZ    PW     OW    WS   WD   WG    AT    WT    AP    SA    SG     RH    AG   VI
****************************************************************************************************
2020/02/14 08:24 EST   -0.02  -0.22   20   11   27  30.2  40.3 1023.3 -9.9 -9.999 -99.9 -99.99 -9.99
2020/02/14 08:30 EST   -0.09  -0.25   22    8   27  29.7  40.3 1023.2 -9.9 -9.999 -99.9 -99.99 -9.99
2020/02/14 08:36 EST   -0.16  -0.21   23    4   26  29.8  40.3 1023.3 -9.9 -9.999 -99.9 -99.99 -9.99
2020/02/14 08:42 EST   -0.22  -0.20   22    3   27  30.0  40.3 1023.6 -9.9 -9.999 -99.9 -99.99 -9.99
2020/02/14 08:48 EST   -0.27  -0.18   21    2   27  30.0  40.3 1023.9 -9.9 -9.999 -99.9 -99.99 -9.99
2020/02/14 08:54 EST   -0.31  -0.16   19    5   25  29.7  40.3 1024.0 -9.9 -9.999 -99.9 -99.99 -9.99
2020/02/14 09:00 EST   -0.35  -0.18   21    5   24  29.7  40.3 1024.2 -9.9 -9.999 -99.9 -99.99 -9.99
2020/02/14 09:06 EST   -0.38  -0.17   21    3   25  29.3  40.3 1024.4 -9.9 -9.999 -99.9 -99.99 -9.99
2020/02/14 09:12 EST   -0.41  -0.17   18    3   24  29.5  40.3 1024.6 -9.9 -9.999 -99.9 -99.99 -9.99
2020/02/14 09:18 EST   -0.44  -0.17   18    3   23  29.5  40.3 1024.5 -9.9 -9.999 -99.9 -99.99 -9.99
2020/02/14 09:24 EST   -0.46  -0.20   21  359   24  29.1  40.3 1024.5 -9.9 -9.999 -99.9 -99.99 -9.99
2020/02/14 09:30 EST   -0.47  -0.22   18    7   25  29.3  40.3 1024.7 -9.9 -9.999 -99.9 -99.99 -9.99
2020/02/14 09:36 EST   -0.48  -0.23   20    9   27  28.9  40.3 1024.8 -9.9 -9.999 -99.9 -99.99 -9.99
2020/02/14 09:42 EST   -0.49  -0.23   20    2   25  28.8  40.3 1024.9 -9.9 -9.999 -99.9 -99.99 -9.99
2020/02/14 09:48 EST   -0.49  -0.25   19  358   24  28.9  40.3 1024.9 -9.9 -9.999 -99.9 -99.99 -9.99
2020/02/14 09:54 EST   -0.48  -0.25   19  348   23  28.9  40.3 1025.0 -9.9 -9.999 -99.9 -99.99 -9.99
2020/02/14 10:00 EST   -0.47  -0.26   17    5   23  29.3  40.3 1025.2 -9.9 -9.999 -99.9 -99.99 -9.99
2020/02/14 10:06 EST   -0.46  -0.27   21    3   24  28.9  40.3 1025.3 -9.9 -9.999 -99.9 -99.99 -9.99
2020/02/14 10:12 EST   -0.44  -0.27   21    7   25  28.9  40.3 1025.3 -9.9 -9.999 -99.9 -99.99 -9.99
2020/02/14 10:18 EST   -0.41  -0.29   20   14   23  28.8  40.3 1025.2 -9.9 -9.999 -99.9 -99.99 -9.99
2020/02/14 10:24 EST   -0.37  -0.27   14   10   23  29.3  40.3 1025.5 -9.9 -9.999 -99.9 -99.99 -9.99
2020/02/14 10:30 EST   -0.32  -0.25   17  358   21  28.6  40.3 1025.6 -9.9 -9.999 -99.9 -99.99 -9.99
2020/02/14 10:36 EST   -0.26  -0.20   20    5   24  28.8  40.3 1025.6 -9.9 -9.999 -99.9 -99.99 -9.99
2020/02/14 10:42 EST   -0.19  -0.19   21    4   25  28.8  40.3 1025.6 -9.9 -9.999 -99.9 -99.99 -9.99
2020/02/14 10:48 EST   -0.10  -0.15   21    3   24  28.4  40.5 1025.8 -9.9 -9.999 -99.9 -99.99 -9.99
2020/02/14 10:54 EST   -0.01  -0.07   15    7   23  28.6  40.3 1025.8 -9.9 -9.999 -99.9 -99.99 -9.99
2020/02/14 11:00 EST    0.10   0.02   19    7   23  28.6  40.5 1025.8 -9.9 -9.999 -99.9 -99.99 -9.99
2020/02/14 11:06 EST    0.22   0.14   21    5   25  28.6  40.3 1025.9 -9.9 -9.999 -99.9 -99.99 -9.99
2020/02/14 11:12 EST    0.36   0.23   21    4   25  28.6  40.5 1025.9 -9.9 -9.999 -99.9 -99.99 -9.99
2020/02/14 11:18 EST    0.51   0.34   19    9   24  28.6  40.3 1025.8 -9.9 -9.999 -99.9 -99.99 -9.99
2020/02/14 11:24 EST    0.68   0.48   20    1   23  28.4  40.3 1025.9 -9.9 -9.999 -99.9 -99.99 -9.99
2020/02/14 11:30 EST    0.86   0.64   16    0   22  28.6  40.3 1025.9 -9.9 -9.999 -99.9 -99.99 -9.99
2020/02/14 11:36 EST    1.06   0.82   13    0   18  28.8  40.5 1026.0 -9.9 -9.999 -99.9 -99.99 -9.99
2020/02/14 11:42 EST    1.27   1.01   16    4   24  28.6  40.5 1026.0 -9.9 -9.999 -99.9 -99.99 -9.99
2020/02/14 11:48 EST    1.49   1.22   18    9   25  29.1  40.5 1026.0 -9.9 -9.999 -99.9 -99.99 -9.99
2020/02/14 11:54 EST    1.72   1.45   16   15   20  28.4  40.5 1026.0 -9.9 -9.999 -99.9 -99.99 -9.99
2020/02/14 12:00 EST    1.96   1.68   19  359   22  28.4  40.5 1025.9 -9.9 -9.999 -99.9 -99.99 -9.99
2020/02/14 12:06 EST    2.21   1.89   18  358   22  28.8  40.6 1025.8 -9.9 -9.999 -99.9 -99.99 -9.99
2020/02/14 12:12 EST    2.47   2.14   19    3   24  28.6  40.5 1025.8 -9.9 -9.999 -99.9 -99.99 -9.99
2020/02/14 12:18 EST    2.74   2.42   18    4   22  28.2  40.5 1025.8 -9.9 -9.999 -99.9 -99.99 -9.99
2020/02/14 12:24 EST    3.01   2.66   19  355   25  28.4  40.5 1025.7 -9.9 -9.999 -99.9 -99.99 -9.99
2020/02/14 12:30 EST    3.28   2.92   19    5   23  28.0  40.5 1025.7 -9.9 -9.999 -99.9 -99.99 -9.99
2020/02/14 12:36 EST    3.55   3.20   19    2   27  28.0  40.6 1025.7 -9.9 -9.999 -99.9 -99.99 -9.99
2020/02/14 12:42 EST    3.82   3.48   20    9   27  28.0  40.5 1025.7 -9.9 -9.999 -99.9 -99.99 -9.99
2020/02/14 12:48 EST    4.09   3.77   20   10   25  28.0  40.6 1025.7 -9.9 -9.999 -99.9 -99.99 -9.99
2020/02/14 12:54 EST    4.35   4.04   15    7   24  28.2  40.6 1025.8 -9.9 -9.999 -99.9 -99.99 -9.99
2020/02/14 13:00 EST    4.61   4.30   18   12   23  28.0  40.6 1025.7 -9.9 -9.999 -99.9 -99.99 -9.99
2020/02/14 13:06 EST    4.86   4.58   20   14   23  28.2  40.6 1025.8 -9.9 -9.999 -99.9 -99.99 -9.99
2020/02/14 13:12 EST    5.10   4.83   16    6   22  28.2  40.6 1025.9 -9.9 -9.999 -99.9 -99.99 -9.99
2020/02/14 13:18 EST    5.33   5.09   17   18   19  28.2  40.6 1026.0 -9.9 -9.999 -99.9 -99.99 -9.99
2020/02/14 13:24 EST    5.55   5.32   18   22   21  28.0  40.6 1026.0 -9.9 -9.999 -99.9 -99.99 -9.99
2020/02/14 13:30 EST    5.75   5.53   17   23   25  28.0  40.6 1026.0 -9.9 -9.999 -99.9 -99.99 -9.99
2020/02/14 13:36 EST    5.95   5.75   17   19   21  28.4  40.6 1026.2 -9.9 -9.999 -99.9 -99.99 -9.99
2020/02/14 13:42 EST    6.12   5.95   16    6   20  28.0  40.6 1026.3 -9.9 -9.999 -99.9 -99.99 -9.99
2020/02/14 13:48 EST    6.29   6.14   17    3   21  28.0  40.6 1026.4 -9.9 -9.999 -99.9 -99.99 -9.99
2020/02/14 13:54 EST    6.44   6.30   17   18   22  28.2  40.6 1026.6 -9.9 -9.999 -99.9 -99.99 -9.99
2020/02/14 14:00 EST    6.58   6.46   13   19   20  28.6  40.8 1026.7 -9.9 -9.999 -99.9 -99.99 -9.99
2020/02/14 14:06 EST    6.71   6.57   15   36   22  28.6  40.6 1026.7 -9.9 -9.999 -99.9 -99.99 -9.99
2020/02/14 14:12 EST    6.82   6.69   18   16   19  28.4  40.8 1026.8 -9.9 -9.999 -99.9 -99.99 -9.99
2020/02/14 14:18 EST    6.92   6.77   13    1   20  28.2  40.8 1026.9 -9.9 -9.999 -99.9 -99.99 -9.99
2020/02/14 14:24 EST    7.00   6.83   12   18   17  28.9  40.8 1026.9 -9.9 -9.999 -99.9 -99.99 -9.99
2020/02/14 14:30 EST    7.08   6.88   17   28   19  28.9  40.8 1026.9 -9.9 -9.999 -99.9 -99.99 -9.99
2020/02/14 14:36 EST    7.14   6.94   16   47   19  28.9  40.8 1027.0 -9.9 -9.999 -99.9 -99.99 -9.99
2020/02/14 14:42 EST    7.20   6.97   19   39   22  28.6  40.8 1027.1 -9.9 -9.999 -99.9 -99.99 -9.99
2020/02/14 14:48 EST    7.24   7.00   17   31   21  28.6  40.8 1027.3 -9.9 -9.999 -99.9 -99.99 -9.99
2020/02/14 14:54 EST    7.28   7.03   17   33   24  28.8  40.8 1027.4 -9.9 -9.999 -99.9 -99.99 -9.99
2020/02/14 15:00 EST    7.31   7.06   15   19   20  28.8  40.8 1027.4 -9.9 -9.999 -99.9 -99.99 -9.99
2020/02/14 15:06 EST    7.33   7.09   16   37   21  28.8  40.8 1027.5 -9.9 -9.999 -99.9 -99.99 -9.99
2020/02/14 15:12 EST    7.34   7.11   14   38   17  28.9  40.8 1027.6 -9.9 -9.999 -99.9 -99.99 -9.99
2020/02/14 15:18 EST    7.35   7.14   16   23   20  29.3  40.8 1027.7 -9.9 -9.999 -99.9 -99.99 -9.99
2020/02/14 15:24 EST    7.35   7.15   13   34   19  28.9  40.8 1027.8 -9.9 -9.999 -99.9 -99.99 -9.99
2020/02/14 15:30 EST    7.35   7.17   11   16   15  29.1  40.8 1027.9 -9.9 -9.999 -99.9 -99.99 -9.99
2020/02/14 15:36 EST    7.34   7.20   17   24   21  28.6  40.8 1028.0 -9.9 -9.999 -99.9 -99.99 -9.99
2020/02/14 15:42 EST    7.32   7.22   12   25   17  28.6  40.8 1028.1 -9.9 -9.999 -99.9 -99.99 -9.99
2020/02/14 15:48 EST    7.30   7.22   15   19   17  29.1  40.8 1028.3 -9.9 -9.999 -99.9 -99.99 -9.99
2020/02/14 15:54 EST    7.28   7.23   17   19   19  28.8  40.8 1028.4 -9.9 -9.999 -99.9 -99.99 -9.99
2020/02/14 16:00 EST    7.25   7.23   17   10   21  28.9  40.8 1028.5 -9.9 -9.999 -99.9 -99.99 -9.99
2020/02/14 16:06 EST    7.21   7.23   13   22   17  28.9  40.8 1028.7 -9.9 -9.999 -99.9 -99.99 -9.99
2020/02/14 16:12 EST    7.17   7.22   14    7   17  28.9  40.8 1028.7 -9.9 -9.999 -99.9 -99.99 -9.99
2020/02/14 16:18 EST    7.12   7.23   12    5   17  28.9  40.8 1028.8 -9.9 -9.999 -99.9 -99.99 -9.99
2020/02/14 16:24 EST    7.07   7.22   16   17   19  28.8  40.8 1028.8 -9.9 -9.999 -99.9 -99.99 -9.99
2020/02/14 16:30 EST    7.00   7.18   13   36   16  29.3  40.8 1029.0 -9.9 -9.999 -99.9 -99.99 -9.99
2020/02/14 16:36 EST    6.93   7.14   14   33   16  28.4  40.8 1029.1 -9.9 -9.999 -99.9 -99.99 -9.99
2020/02/14 16:42 EST    6.86   7.09   14   24   17  29.1  40.6 1029.2 -9.9 -9.999 -99.9 -99.99 -9.99
2020/02/14 16:48 EST    6.77   7.03   14   13   17  28.6  40.6 1029.3 -9.9 -9.999 -99.9 -99.99 -9.99
2020/02/14 16:54 EST    6.68   6.95   15   17   17  28.4  40.6 1029.4 -9.9 -9.999 -99.9 -99.99 -9.99
2020/02/14 17:00 EST    6.57   6.86   12    5   19  28.4  40.6 1029.5 -9.9 -9.999 -99.9 -99.99 -9.99
2020/02/14 17:06 EST    6.46   6.75   12    9   14  28.4  40.6 1029.7 -9.9 -9.999 -99.9 -99.99 -9.99
2020/02/14 17:12 EST    6.34   6.65   12    5   16  28.4  40.6 1029.8 -9.9 -9.999 -99.9 -99.99 -9.99
2020/02/14 17:18 EST    6.21   6.54   13   22   16  28.4  40.6 1029.9 -9.9 -9.999 -99.9 -99.99 -9.99
2020/02/14 17:24 EST    6.07   6.41   12   11   16  28.4  40.6 1030.0 -9.9 -9.999 -99.9 -99.99 -9.99
2020/02/14 17:30 EST    5.92   6.27   14   11   16  28.4  40.6 1030.2 -9.9 -9.999 -99.9 -99.99 -9.99
2020/02/14 17:36 EST    5.76   6.12   15   17   19  28.2  40.6 1030.4 -9.9 -9.999 -99.9 -99.99 -9.99
2020/02/14 17:42 EST    5.59   5.95   16   31   18  28.2  40.6 1030.5 -9.9 -9.999 -99.9 -99.99 -9.99
2020/02/14 17:48 EST    5.41   5.77   15   20   19  28.2  40.6 1030.7 -9.9 -9.999 -99.9 -99.99 -9.99
2020/02/14 17:54 EST    5.23   5.59   15   19   19  28.0  40.6 1030.8 -9.9 -9.999 -99.9 -99.99 -9.99
2020/02/14 18:00 EST    5.03   5.37   15   16   19  27.5  40.6 1031.0 -9.9 -9.999 -99.9 -99.99 -9.99
2020/02/14 18:06 EST    4.83   5.16   13   17   18  27.3  40.6 1031.2 -9.9 -9.999 -99.9 -99.99 -9.99
2020/02/14 18:12 EST    4.63   4.93   16   21   21  27.3  40.6 1031.4 -9.9 -9.999 -99.9 -99.99 -9.99
2020/02/14 18:18 EST    4.42   4.71   15   12   21  27.3  40.6 1031.5 -9.9 -9.999 -99.9 -99.99 -9.99
2020/02/14 18:24 EST    4.20   4.47   17   14   19  26.8  40.6 1031.6 -9.9 -9.999 -99.9 -99.99 -9.99
2020/02/14 18:30 EST    3.98   4.22   16    5   20  26.8  40.6 1031.8 -9.9 -9.999 -99.9 -99.99 -9.99
2020/02/14 18:36 EST    3.76   3.98   19   15   21  26.6  40.6 1032.0 -9.9 -9.999 -99.9 -99.99 -9.99
2020/02/14 18:42 EST    3.53   3.75   17   11   20  26.4  40.6 1032.2 -9.9 -9.999 -99.9 -99.99 -9.99
2020/02/14 18:48 EST    3.31   3.51   15   11   19  26.6  40.5 1032.3 -9.9 -9.999 -99.9 -99.99 -9.99
2020/02/14 18:54 EST    3.08   3.28   16   23   18  26.2  40.5 1032.5 -9.9 -9.999 -99.9 -99.99 -9.99
2020/02/14 19:00 EST    2.86   3.05   17   12   19  26.2  40.5 1032.6 -9.9 -9.999 -99.9 -99.99 -9.99
2020/02/14 19:06 EST    2.64   2.84   18   11   21  26.1  40.5 1032.7 -9.9 -9.999 -99.9 -99.99 -9.99
2020/02/14 19:12 EST    2.43   2.63   18   11   21  26.1  40.5 1032.9 -9.9 -9.999 -99.9 -99.99 -9.99
2020/02/14 19:18 EST    2.22   2.44   19   13   21  25.7  40.5 1033.1 -9.9 -9.999 -99.9 -99.99 -9.99
2020/02/14 19:24 EST    2.01   2.24   17   18   20  25.5  40.5 1033.3 -9.9 -9.999 -99.9 -99.99 -9.99
2020/02/14 19:30 EST    1.81   2.05   17   19   20  25.3  40.5 1033.3 -9.9 -9.999 -99.9 -99.99 -9.99
2020/02/14 19:36 EST    1.62   1.91   17   13   21  25.3  40.5 1033.4 -9.9 -9.999 -99.9 -99.99 -9.99
2020/02/14 19:42 EST    1.44   1.76   16   28   21  25.2  40.5 1033.5 -9.9 -9.999 -99.9 -99.99 -9.99
2020/02/14 19:48 EST    1.27   1.62   16   23   22  24.8  40.5 1033.7 -9.9 -9.999 -99.9 -99.99 -9.99
2020/02/14 19:54 EST    1.10   1.48   16   43   19  24.6  40.5 1033.8 -9.9 -9.999 -99.9 -99.99 -9.99
2020/02/14 20:00 EST    0.95   1.35   18   41   20  24.3  40.5 1034.0 -9.9 -9.999 -99.9 -99.99 -9.99
2020/02/14 20:06 EST    0.81   1.23   17   42   20  23.9  40.5 1034.0 -9.9 -9.999 -99.9 -99.99 -9.99
2020/02/14 20:12 EST    0.68   1.11   17   43   20  23.5  40.5 1034.1 -9.9 -9.999 -99.9 -99.99 -9.99
2020/02/14 20:18 EST    0.56   1.01   18   50   22  23.4  40.5 1034.3 -9.9 -9.999 -99.9 -99.99 -9.99
2020/02/14 20:24 EST    0.45   0.91   16   49   22  23.7  40.5 1034.4 -9.9 -9.999 -99.9 -99.99 -9.99
2020/02/14 20:30 EST    0.35   0.82   18   36   23  23.4  40.5 1034.6 -9.9 -9.999 -99.9 -99.99 -9.99
2020/02/14 20:36 EST    0.26   0.76   16   51   19  22.5  40.5 1034.7 -9.9 -9.999 -99.9 -99.99 -9.99
2020/02/14 20:42 EST    0.18   0.69   14   63   19  22.3  40.3 1034.7 -9.9 -9.999 -99.9 -99.99 -9.99
2020/02/14 20:48 EST    0.11   0.64   14   53   19  22.3  40.3 1034.8 -9.9 -9.999 -99.9 -99.99 -9.99
2020/02/14 20:54 EST    0.05   0.60   16   48   20  22.1  40.3 1035.0 -9.9 -9.999 -99.9 -99.99 -9.99
2020/02/14 21:00 EST   -0.01   0.55   16   48   19  22.1  40.5 1035.1 -9.9 -9.999 -99.9 -99.99 -9.99
2020/02/14 21:06 EST   -0.05   0.52   13   57   20  21.7  40.5 1035.1 -9.9 -9.999 -99.9 -99.99 -9.99
2020/02/14 21:12 EST   -0.09   0.53   15   53   20  21.9  40.3 1035.2 -9.9 -9.999 -99.9 -99.99 -9.99
2020/02/14 21:18 EST   -0.13   0.48   17   34   19  21.9  40.3 1035.3 -9.9 -9.999 -99.9 -99.99 -9.99
2020/02/14 21:24 EST   -0.15   0.47   15   54   19  21.7  40.3 1035.5 -9.9 -9.999 -99.9 -99.99 -9.99
2020/02/14 21:30 EST   -0.18   0.48   14   54   19  21.4  40.3 1035.6 -9.9 -9.999 -99.9 -99.99 -9.99
2020/02/14 21:36 EST   -0.19   0.47   13   57   16  21.4  40.3 1035.7 -9.9 -9.999 -99.9 -99.99 -9.99
2020/02/14 21:42 EST   -0.21   0.47   15   53   19  21.2  40.3 1035.7 -9.9 -9.999 -99.9 -99.99 -9.99
2020/02/14 21:48 EST   -0.21   0.45   18   48   22  20.8  40.3 1035.9 -9.9 -9.999 -99.9 -99.99 -9.99
2020/02/14 21:54 EST   -0.22   0.43   17   40   22  21.2  40.3 1036.1 -9.9 -9.999 -99.9 -99.99 -9.99
2020/02/14 22:00 EST   -0.22   0.40   15   40   20  21.0  40.3 1036.1 -9.9 -9.999 -99.9 -99.99 -9.99
2020/02/14 22:06 EST   -0.22   0.39   16   40   20  21.0  40.3 1036.1 -9.9 -9.999 -99.9 -99.99 -9.99
2020/02/14 22:12 EST   -0.21   0.39   17   36   19  21.2  40.1 1036.1 -9.9 -9.999 -99.9 -99.99 -9.99
2020/02/14 22:18 EST   -0.20   0.37   17   35   20  20.3  39.9 1036.1 -9.9 -9.999 -99.9 -99.99 -9.99
2020/02/14 22:24 EST   -0.18   0.35   15   48   19  20.3  39.9 1036.2 -9.9 -9.999 -99.9 -99.99 -9.99
2020/02/14 22:30 EST   -0.16   0.34   17   44   20  20.5  39.9 1036.2 -9.9 -9.999 -99.9 -99.99 -9.99
2020/02/14 22:36 EST   -0.13   0.34   16   45   20  19.9  39.9 1036.3 -9.9 -9.999 -99.9 -99.99 -9.99
2020/02/14 22:42 EST   -0.09   0.34   16   39   19  20.1  39.9 1036.4 -9.9 -9.999 -99.9 -99.99 -9.99
2020/02/14 22:48 EST   -0.05   0.36   16   38   19  20.1  39.9 1036.4 -9.9 -9.999 -99.9 -99.99 -9.99
2020/02/14 22:54 EST    0.00   0.39   15   41   17  19.8  40.1 1036.4 -9.9 -9.999 -99.9 -99.99 -9.99
2020/02/14 23:00 EST    0.07   0.44   15   39   19  19.6  39.9 1036.4 -9.9 -9.999 -99.9 -99.99 -9.99
2020/02/14 23:06 EST    0.14   0.48   12   51   18  19.6  39.9 1036.4 -9.9 -9.999 -99.9 -99.99 -9.99
2020/02/14 23:12 EST    0.23   0.54   12   47   16  19.8  39.9 1036.4 -9.9 -9.999 -99.9 -99.99 -9.99
2020/02/14 23:18 EST    0.33   0.62   14   38   16  19.4  39.9 1036.5 -9.9 -9.999 -99.9 -99.99 -9.99
2020/02/14 23:24 EST    0.44   0.69   13   37   17  19.4  39.9 1036.4 -9.9 -9.999 -99.9 -99.99 -9.99
2020/02/14 23:30 EST    0.56   0.78   13   48   16  19.0  39.7 1036.5 -9.9 -9.999 -99.9 -99.99 -9.99
2020/02/14 23:36 EST    0.70   0.90   11   37   16  19.0  39.7 1036.6 -9.9 -9.999 -99.9 -99.99 -9.99
2020/02/14 23:42 EST    0.86   1.03   12   43   17  19.4  39.7 1036.7 -9.9 -9.999 -99.9 -99.99 -9.99
2020/02/14 23:48 EST    1.03   1.17   15   42   18  18.7  39.6 1036.8 -9.9 -9.999 -99.9 -99.99 -9.99
2020/02/14 23:54 EST    1.21   1.34   15   48   17  18.7  39.6 1036.8 -9.9 -9.999 -99.9 -99.99 -9.99
2020/02/15 00:00 EST    1.41   1.53   16   38   18  19.0  39.6 1037.0 -9.9 -9.999 -99.9 -99.99 -9.99
2020/02/15 00:06 EST    1.62   1.74   13   47   17  18.7  39.6 1037.0 -9.9 -9.999 -99.9 -99.99 -9.99
2020/02/15 00:12 EST    1.84   1.95   13   42   16  18.7  39.7 1037.0 -9.9 -9.999 -99.9 -99.99 -9.99
2020/02/15 00:18 EST    2.07   2.19   13   32   17  18.5  39.7 1037.0 -9.9 -9.999 -99.9 -99.99 -9.99
2020/02/15 00:24 EST    2.32   2.43   11   29   14  18.9  39.6 1037.1 -9.9 -9.999 -99.9 -99.99 -9.99
2020/02/15 00:30 EST    2.57   2.69   12   48   14  18.3  39.6 1037.2 -9.9 -9.999 -99.9 -99.99 -9.99
2020/02/15 00:36 EST    2.84   2.95   11   52   16  18.3  39.6 1037.1 -9.9 -9.999 -99.9 -99.99 -9.99
2020/02/15 00:42 EST    3.10   3.22   13   41   16  18.3  39.6 1037.1 -9.9 -9.999 -99.9 -99.99 -9.99
2020/02/15 00:48 EST    3.38   3.49   10   55   15  18.1  39.7 1037.1 -9.9 -9.999 -99.9 -99.99 -9.99
2020/02/15 00:54 EST    3.65   3.77    9   50   14  18.3  39.6 1037.2 -9.9 -9.999 -99.9 -99.99 -9.99
2020/02/15 01:00 EST    3.93   4.06   10   31   13  18.3  39.6 1037.2 -9.9 -9.999 -99.9 -99.99 -9.99
2020/02/15 01:06 EST    4.20   4.33   10   58   15  18.0  39.6 1037.4 -9.9 -9.999 -99.9 -99.99 -9.99
2020/02/15 01:12 EST    4.48   4.63   10   41   14  18.0  39.6 1037.3 -9.9 -9.999 -99.9 -99.99 -9.99
2020/02/15 01:18 EST    4.74   4.90   10   41   12  17.8  39.6 1037.3 -9.9 -9.999 -99.9 -99.99 -9.99
2020/02/15 01:24 EST    5.01   5.16    9   37   13  17.6  39.6 1037.3 -9.9 -9.999 -99.9 -99.99 -9.99
2020/02/15 01:30 EST    5.26   5.43   11   33   13  18.0  39.6 1037.2 -9.9 -9.999 -99.9 -99.99 -9.99
2020/02/15 01:36 EST    5.51   5.69   11   34   13  17.4  39.6 1037.2 -9.9 -9.999 -99.9 -99.99 -9.99
2020/02/15 01:42 EST    5.74   5.93   11   34   14  17.2  39.7 1037.3 -9.9 -9.999 -99.9 -99.99 -9.99
2020/02/15 01:48 EST    5.97   6.17    9   35   13  17.4  39.7 1037.4 -9.9 -9.999 -99.9 -99.99 -9.99
2020/02/15 01:54 EST    6.18   6.40    9   46   13  17.6  39.7 1037.4 -9.9 -9.999 -99.9 -99.99 -9.99
2020/02/15 02:00 EST    6.38   6.60   10   35   12  17.4  39.7 1037.4 -9.9 -9.999 -99.9 -99.99 -9.99
2020/02/15 02:06 EST    6.57   6.80    9   46   12  17.2  39.7 1037.6 -9.9 -9.999 -99.9 -99.99 -9.99
2020/02/15 02:12 EST    6.74   6.98    9   37   12  17.1  39.7 1037.4 -9.9 -9.999 -99.9 -99.99 -9.99
2020/02/15 02:18 EST    6.90   7.13   10   41   13  17.4  39.7 1037.5 -9.9 -9.999 -99.9 -99.99 -9.99
2020/02/15 02:24 EST    7.05   7.26    8   40   11  17.1  39.7 1037.4 -9.9 -9.999 -99.9 -99.99 -9.99
2020/02/15 02:30 EST    7.18   7.37    8   43   11  16.7  39.7 1037.5 -9.9 -9.999 -99.9 -99.99 -9.99
2020/02/15 02:36 EST    7.30   7.47    9   31   12  16.7  39.7 1037.4 -9.9 -9.999 -99.9 -99.99 -9.99
2020/02/15 02:42 EST    7.40   7.55    9   25   11  16.7  39.7 1037.3 -9.9 -9.999 -99.9 -99.99 -9.99
2020/02/15 02:48 EST    7.50   7.61    8   26   12  16.5  39.6 1037.3 -9.9 -9.999 -99.9 -99.99 -9.99
2020/02/15 02:54 EST    7.58   7.66    9   41   11  17.2  39.6 1037.4 -9.9 -9.999 -99.9 -99.99 -9.99
2020/02/15 03:00 EST    7.65   7.71    8   35   11  17.1  39.6 1037.5 -9.9 -9.999 -99.9 -99.99 -9.99
2020/02/15 03:06 EST    7.71   7.74    9   30   11  16.5  39.6 1037.6 -9.9 -9.999 -99.9 -99.99 -9.99
2020/02/15 03:12 EST    7.77   7.75   10   33   12  16.9  39.6 1037.7 -9.9 -9.999 -99.9 -99.99 -9.99
2020/02/15 03:18 EST    7.81   7.76   10   37   12  16.7  39.6 1037.7 -9.9 -9.999 -99.9 -99.99 -9.99
2020/02/15 03:24 EST    7.84   7.74   10   22   11  17.1  39.6 1037.9 -9.9 -9.999 -99.9 -99.99 -9.99
2020/02/15 03:30 EST    7.87   7.73    8   36   13  17.1  39.6 1038.1 -9.9 -9.999 -99.9 -99.99 -9.99
2020/02/15 03:36 EST    7.89   7.72    8   31   11  16.5  39.6 1038.1 -9.9 -9.999 -99.9 -99.99 -9.99
2020/02/15 03:42 EST    7.91   7.71    8   36   12  16.5  39.4 1038.0 -9.9 -9.999 -99.9 -99.99 -9.99
2020/02/15 03:48 EST    7.91   7.70   10   39   12  16.0  39.4 1038.0 -9.9 -9.999 -99.9 -99.99 -9.99
2020/02/15 03:54 EST    7.92   7.69    6   58   10  16.0  39.4 1038.0 -9.9 -9.999 -99.9 -99.99 -9.99
2020/02/15 04:00 EST    7.91   7.69    7   46   10  15.6  39.4 1038.1 -9.9 -9.999 -99.9 -99.99 -9.99
2020/02/15 04:06 EST    7.90   7.68    7   49   10  16.2  39.4 1038.1 -9.9 -9.999 -99.9 -99.99 -9.99
2020/02/15 04:12 EST    7.89   7.69    6   56   11  15.8  39.4 1038.2 -9.9 -9.999 -99.9 -99.99 -9.99
2020/02/15 04:18 EST    7.87   7.69    9   29   10  16.2  39.4 1038.1 -9.9 -9.999 -99.9 -99.99 -9.99
2020/02/15 04:24 EST    7.85   7.68    8   37   10  15.8  39.4 1038.2 -9.9 -9.999 -99.9 -99.99 -9.99
2020/02/15 04:30 EST    7.82   7.68    7   39   12  16.2  39.4 1038.1 -9.9 -9.999 -99.9 -99.99 -9.99
2020/02/15 04:36 EST    7.78   7.67    7   32   10  15.6  39.4 1038.1 -9.9 -9.999 -99.9 -99.99 -9.99
2020/02/15 04:42 EST    7.74   7.66    6   51   10  16.2  39.4 1038.2 -9.9 -9.999 -99.9 -99.99 -9.99
2020/02/15 04:48 EST    7.69   7.65    7   44   10  15.8  39.4 1038.2 -9.9 -9.999 -99.9 -99.99 -9.99
2020/02/15 04:54 EST    7.63   7.62    7   27   10  16.3  39.4 1038.1 -9.9 -9.999 -99.9 -99.99 -9.99
2020/02/15 05:00 EST    7.56   7.60    8   35   10  16.5  39.4 1038.0 -9.9 -9.999 -99.9 -99.99 -9.99
2020/02/15 05:06 EST    7.49   7.57    5   62   11  16.0  39.4 1038.0 -9.9 -9.999 -99.9 -99.99 -9.99
2020/02/15 05:12 EST    7.41   7.54    7   36   10  15.6  39.6 1038.2 -9.9 -9.999 -99.9 -99.99 -9.99
2020/02/15 05:18 EST    7.32   7.48    6   31   11  16.0  39.6 1038.3 -9.9 -9.999 -99.9 -99.99 -9.99
2020/02/15 05:24 EST    7.22   7.41    7   45   11  16.0  39.6 1038.1 -9.9 -9.999 -99.9 -99.99 -9.99
2020/02/15 05:30 EST    7.12   7.33    7   43   12  15.8  39.6 1038.1 -9.9 -9.999 -99.9 -99.99 -9.99
2020/02/15 05:36 EST    7.00   7.24    8   23   10  15.6  39.7 1038.1 -9.9 -9.999 -99.9 -99.99 -9.99
2020/02/15 05:42 EST    6.87   7.14    7   32   10  15.6  39.6 1038.3 -9.9 -9.999 -99.9 -99.99 -9.99
2020/02/15 05:48 EST    6.74   7.01    8   38   10  15.4  39.7 1038.6 -9.9 -9.999 -99.9 -99.99 -9.99
2020/02/15 05:54 EST    6.59   6.88    8   41   10  15.6  39.6 1038.6 -9.9 -9.999 -99.9 -99.99 -9.99
2020/02/15 06:00 EST    6.43   6.74   10   31   12  15.6  39.6 1038.8 -9.9 -9.999 -99.9 -99.99 -9.99
2020/02/15 06:06 EST    6.27   6.58   10   21   12  15.6  39.6 1038.8 -9.9 -9.999 -99.9 -99.99 -9.99
2020/02/15 06:12 EST    6.09   6.41   10   29   13  16.0  39.4 1038.8 -9.9 -9.999 -99.9 -99.99 -9.99
2020/02/15 06:18 EST    5.91   6.24   10   32   12  15.6  39.4 1039.0 -9.9 -9.999 -99.9 -99.99 -9.99
2020/02/15 06:24 EST    5.72   6.04   10   28   12  15.4  39.4 1039.0 -9.9 -9.999 -99.9 -99.99 -9.99
2020/02/15 06:30 EST    5.52   5.83    9   36   12  15.3  39.4 1038.9 -9.9 -9.999 -99.9 -99.99 -9.99
2020/02/15 06:36 EST    5.32   5.62    8   39   13  15.6  39.4 1039.0 -9.9 -9.999 -99.9 -99.99 -9.99
2020/02/15 06:42 EST    5.11   5.39    8   59   11  15.3  39.4 1038.7 -9.9 -9.999 -99.9 -99.99 -9.99
2020/02/15 06:48 EST    4.89   5.16    8   53   11  14.5  39.6 1038.7 -9.9 -9.999 -99.9 -99.99 -9.99
2020/02/15 06:54 EST    4.67   4.93    9   44   10  15.1  39.6 1038.9 -9.9 -9.999 -99.9 -99.99 -9.99
2020/02/15 07:00 EST    4.44   4.69    8   50   11  15.1  39.6 1039.0 -9.9 -9.999 -99.9 -99.99 -9.99
2020/02/15 07:06 EST    4.22   4.44    8   45   10  15.8  39.6 1039.1 -9.9 -9.999 -99.9 -99.99 -9.99
2020/02/15 07:12 EST    3.99   4.19    7   55   10  15.1  39.6 1038.9 -9.9 -9.999 -99.9 -99.99 -9.99
2020/02/15 07:18 EST    3.76   3.94    6   78   11  14.9  39.6 1038.9 -9.9 -9.999 -99.9 -99.99 -9.99
2020/02/15 07:24 EST    3.53   3.69    6   73    9  14.9  39.6 1038.8 -9.9 -9.999 -99.9 -99.99 -9.99
2020/02/15 07:30 EST    3.31   3.45    5   55    8  15.3  39.6 1038.9 -9.9 -9.999 -99.9 -99.99 -9.99
2020/02/15 07:36 EST    3.08   3.19    6   48    8  15.1  39.6 1039.0 -9.9 -9.999 -99.9 -99.99 -9.99
2020/02/15 07:42 EST    2.87   2.94    4   87    9  15.4  39.6 1038.9 -9.9 -9.999 -99.9 -99.99 -9.99
2020/02/15 07:48 EST    2.65   2.72    4   87    5  15.3  39.6 1039.0 -9.9 -9.999 -99.9 -99.99 -9.99
2020/02/15 07:54 EST    2.44   2.49    4   89    5  15.4  39.6 1039.1 -9.9 -9.999 -99.9 -99.99 -9.99
2020/02/15 08:00 EST    2.24   2.26    4   98    6  15.3  39.4 1039.1 -9.9 -9.999 -99.9 -99.99 -9.99
2020/02/15 08:06 EST    2.05   2.05    6   63    9  15.6  39.4 1039.1 -9.9 -9.999 -99.9 -99.99 -9.99
2020/02/15 08:12 EST    1.86   1.85    4   64    7  16.0  39.2 1039.2 -9.9 -9.999 -99.9 -99.99 -9.99
2020/02/15 08:18 EST    1.69   1.66    5   76    7  15.8  39.4 1039.2 -9.9 -9.999 -99.9 -99.99 -9.99
2020/02/15 08:24 EST    1.52   1.48    2   72    5  16.5  39.2 1039.1 -9.9 -9.999 -99.9 -99.99 -9.99
2020/02/15 08:30 EST    1.36   1.31    4   41    5  16.7  39.2 1039.3 -9.9 -9.999 -99.9 -99.99 -9.99
2020/02/15 08:36 EST    1.21   1.13    4   84    9  16.0  39.2 1039.4 -9.9 -9.999 -99.9 -99.99 -9.99
2020/02/15 08:42 EST    1.08   1.01    3   68    8  16.2  39.2 1039.3 -9.9 -9.999 -99.9 -99.99 -9.99
2020/02/15 08:48 EST    0.95   0.89    4   75    6  16.2  39.2 1039.2 -9.9 -9.999 -99.9 -99.99 -9.99
2020/02/15 08:54 EST    0.83   0.79    3   54    6  16.7  39.2 1039.3 -9.9 -9.999 -99.9 -99.99 -9.99
2020/02/15 09:00 EST    0.72   0.68    5   57    7  16.7  39.4 1039.3 -9.9 -9.999 -99.9 -99.99 -9.99
2020/02/15 09:06 EST    0.62   0.60    4   58    8  16.7  39.2 1039.3 -9.9 -9.999 -99.9 -99.99 -9.99
2020/02/15 09:12 EST    0.52   0.55    4   23    6  16.9  39.2 1039.2 -9.9 -9.999 -99.9 -99.99 -9.99
2020/02/15 09:18 EST    0.44   0.51    5   40    7  17.2  39.4 1039.1 -9.9 -9.999 -99.9 -99.99 -9.99
2020/02/15 09:24 EST    0.36   0.47    7   61    8  17.4  39.4 1039.2 -9.9 -9.999 -99.9 -99.99 -9.99
2020/02/15 09:30 EST    0.29   0.46    6   33    8  16.7  39.2 1039.3 -9.9 -9.999 -99.9 -99.99 -9.99
2020/02/15 09:36 EST    0.23   0.44    7   20    8  16.7  39.2 1039.3 -9.9 -9.999 -99.9 -99.99 -9.99
2020/02/15 09:42 EST    0.17   0.43    8   44   10  17.1  39.2 1039.3 -9.9 -9.999 -99.9 -99.99 -9.99
2020/02/15 09:48 EST    0.11   0.42    3   62    7  16.9  39.2 1039.1 -9.9 -9.999 -99.9 -99.99 -9.99
2020/02/15 09:54 EST    0.06   0.42    4   39    6  16.7  39.2 1039.2 -9.9 -9.999 -99.9 -99.99 -9.99
2020/02/15 10:00 EST    0.01   0.41    4   27    6  17.1  39.2 1039.2 -9.9 -9.999 -99.9 -99.99 -9.99
2020/02/15 10:06 EST   -0.03   0.39    6   20    7  16.9  39.0 1039.2 -9.9 -9.999 -99.9 -99.99 -9.99
2020/02/15 10:12 EST   -0.07   0.34    5    8    6  17.8  39.0 1039.2 -9.9 -9.999 -99.9 -99.99 -9.99
2020/02/15 10:18 EST   -0.11   0.31    3  359    6  17.2  39.0 1039.2 -9.9 -9.999 -99.9 -99.99 -9.99
2020/02/15 10:24 EST   -0.14   0.26    3  356    4  17.2  39.2 1039.2 -9.9 -9.999 -99.9 -99.99 -9.99
2020/02/15 10:30 EST   -0.17   0.21    2  329    4  17.4  39.2 1039.1 -9.9 -9.999 -99.9 -99.99 -9.99
2020/02/15 10:36 EST   -0.20   0.18    2   25    3  18.1  39.0 1038.9 -9.9 -9.999 -99.9 -99.99 -9.99
2020/02/15 10:42 EST   -0.22   0.14    3  344    4  17.8  39.0 1038.9 -9.9 -9.999 -99.9 -99.99 -9.99
2020/02/15 10:48 EST   -0.24   0.09    3  351    4  18.3  39.0 1038.8 -9.9 -9.999 -99.9 -99.99 -9.99
2020/02/15 10:54 EST   -0.25   0.06    1    4    2  18.7  39.0 1038.7 -9.9 -9.999 -99.9 -99.99 -9.99
2020/02/15 11:00 EST   -0.26   0.02    2   19    3  18.9  39.0 1038.7 -9.9 -9.999 -99.9 -99.99 -9.99
2020/02/15 11:06 EST   -0.26   0.00    2  333    3  19.0  39.0 1038.6 -9.9 -9.999 -99.9 -99.99 -9.99
2020/02/15 11:12 EST   -0.25  -0.02    1  359    2  19.6  38.8 1038.5 -9.9 -9.999 -99.9 -99.99 -9.99
2020/02/15 11:18 EST   -0.24  -0.03    0  255    1  20.1  39.0 1038.2 -9.9 -9.999 -99.9 -99.99 -9.99
2020/02/15 11:24 EST   -0.21  -0.05    1  214    2  20.7  39.0 1038.1 -9.9 -9.999 -99.9 -99.99 -9.99
2020/02/15 11:30 EST   -0.17  -0.05    0  217    2  21.0  39.0 1037.9 -9.9 -9.999 -99.9 -99.99 -9.99
2020/02/15 11:36 EST   -0.13  -0.04    1  226    2  21.2  39.0 1037.8 -9.9 -9.999 -99.9 -99.99 -9.99
2020/02/15 11:42 EST   -0.07  -0.02    2  203    3  21.6  39.0 1037.7 -9.9 -9.999 -99.9 -99.99 -9.99
2020/02/15 11:48 EST    0.01   0.02    1  249    3  22.1  39.0 1037.5 -9.9 -9.999 -99.9 -99.99 -9.99
2020/02/15 11:54 EST    0.09   0.08    1  258    2  22.5  39.0 1037.4 -9.9 -9.999 -99.9 -99.99 -9.99
2020/02/15 12:00 EST    0.19   0.15    1  247    3  23.4  39.0 1037.2 -9.9 -9.999 -99.9 -99.99 -9.99
2020/02/15 12:06 EST    0.31   0.24    0   88    2  23.9  39.0 1037.0 -9.9 -9.999 -99.9 -99.99 -9.99
2020/02/15 12:12 EST    0.44   0.35    2  349    3  23.2  39.0 1037.0 -9.9 -9.999 -99.9 -99.99 -9.99
2020/02/15 12:18 EST    0.58   0.48    2  339    3  23.2  39.2 1036.9 -9.9 -9.999 -99.9 -99.99 -9.99
2020/02/15 12:24 EST    0.74   0.64    1    3    4  23.9  39.2 1036.8 -9.9 -9.999 -99.9 -99.99 -9.99
2020/02/15 12:30 EST    0.92   0.80    1  317    2  24.3  39.2 1036.6 -9.9 -9.999 -99.9 -99.99 -9.99
2020/02/15 12:36 EST    1.11   0.99    2  360    3  24.4  39.2 1036.6 -9.9 -9.999 -99.9 -99.99 -9.99
2020/02/15 12:42 EST    1.31   1.18    3  317    4  24.1  39.4 1036.5 -9.9 -9.999 -99.9 -99.99 -9.99
2020/02/15 12:48 EST    1.52   1.40    0   10    2  26.1  39.6 1036.2 -9.9 -9.999 -99.9 -99.99 -9.99
2020/02/15 12:54 EST    1.74   1.62    2  342    3  25.2  39.7 1036.2 -9.9 -9.999 -99.9 -99.99 -9.99
2020/02/15 13:00 EST    1.97   1.85    0  301    3  26.2  39.7 1036.0 -9.9 -9.999 -99.9 -99.99 -9.99
2020/02/15 13:06 EST    2.21   2.08    1   27    1  28.0  39.7 1035.8 -9.9 -9.999 -99.9 -99.99 -9.99
2020/02/15 13:12 EST    2.45   2.32    0  130    1  29.1  39.7 1035.5 -9.9 -9.999 -99.9 -99.99 -9.99
2020/02/15 13:18 EST    2.70   2.57    3  175    4  27.9  39.7 1035.2 -9.9 -9.999 -99.9 -99.99 -9.99
2020/02/15 13:24 EST    2.95   2.82    3  211    4  26.4  39.7 1035.0 -9.9 -9.999 -99.9 -99.99 -9.99
2020/02/15 13:30 EST    3.20   3.07    3  247    4  26.6  39.7 1034.9 -9.9 -9.999 -99.9 -99.99 -9.99
2020/02/15 13:36 EST    3.45   3.33    1  257    5  27.3  39.7 1034.6 -9.9 -9.999 -99.9 -99.99 -9.99
2020/02/15 13:42 EST    3.70   3.57    7  214   13  26.4  39.7 1034.3 -9.9 -9.999 -99.9 -99.99 -9.99
2020/02/15 13:48 EST    3.95   3.82    9  217   14  25.7  39.7 1034.3 -9.9 -9.999 -99.9 -99.99 -9.99
2020/02/15 13:54 EST    4.18   4.07    9  223   15  25.9  39.7 1034.0 -9.9 -9.999 -99.9 -99.99 -9.99
2020/02/15 14:00 EST    4.42   4.34    9  195   12  26.1  39.7 1034.1 -9.9 -9.999 -99.9 -99.99 -9.99
2020/02/15 14:06 EST    4.64   4.58    9  193   11  26.1  39.7 1033.8 -9.9 -9.999 -99.9 -99.99 -9.99
2020/02/15 14:12 EST    4.85   4.82   11  230   14  26.8  39.7 1033.8 -9.9 -9.999 -99.9 -99.99 -9.99
2020/02/15 14:18 EST    5.05   5.04   11  231   13  26.2  39.7 1033.6 -9.9 -9.999 -99.9 -99.99 -9.99
2020/02/15 14:24 EST    5.24   5.25   12  227   13  26.1  39.9 1033.5 -9.9 -9.999 -99.9 -99.99 -9.99
2020/02/15 14:30 EST    5.42   5.45   13  209   15  26.1  39.9 1033.4 -9.9 -9.999 -99.9 -99.99 -9.99
2020/02/15 14:36 EST    5.59   5.64   13  219   16  25.9  39.9 1033.4 -9.9 -9.999 -99.9 -99.99 -9.99
2020/02/15 14:42 EST    5.75   5.81   12  227   16  26.4  39.9 1033.3 -9.9 -9.999 -99.9 -99.99 -9.99
2020/02/15 14:48 EST    5.89   5.97   11  223   15  25.7  39.9 1033.2 -9.9 -9.999 -99.9 -99.99 -9.99
2020/02/15 14:54 EST    6.02   6.11   11  209   15  25.5  39.9 1033.3 -9.9 -9.999 -99.9 -99.99 -9.99
2020/02/15 15:00 EST    6.14   6.24   11  228   16  25.5  39.9 1033.3 -9.9 -9.999 -99.9 -99.99 -9.99
2020/02/15 15:06 EST    6.25   6.36   13  216   16  25.5  40.1 1033.3 -9.9 -9.999 -99.9 -99.99 -9.99
2020/02/15 15:12 EST    6.34   6.45   11  234   15  25.5  40.1 1033.4 -9.9 -9.999 -99.9 -99.99 -9.99
2020/02/15 15:18 EST    6.43   6.54   11  214   13  25.3  40.1 1033.5 -9.9 -9.999 -99.9 -99.99 -9.99
2020/02/15 15:24 EST    6.51   6.60   11  231   14  25.9  40.1 1033.5 -9.9 -9.999 -99.9 -99.99 -9.99
2020/02/15 15:30 EST    6.57   6.63   12  223   14  25.5  40.1 1033.6 -9.9 -9.999 -99.9 -99.99 -9.99
2020/02/15 15:36 EST    6.63   6.67   11  225   14  25.7  40.1 1033.5 -9.9 -9.999 -99.9 -99.99 -9.99
2020/02/15 15:42 EST    6.68   6.70   11  237   13  25.9  40.1 1033.5 -9.9 -9.999 -99.9 -99.99 -9.99
2020/02/15 15:48 EST    6.73   6.68    9  233   13  25.7  40.1 1033.4 -9.9 -9.999 -99.9 -99.99 -9.99
2020/02/15 15:54 EST    6.77   6.69   13  216   15  26.1  39.9 1033.1 -9.9 -9.999 -99.9 -99.99 -9.99
2020/02/15 16:00 EST    6.80   6.70   13  217   16  26.2  40.1 1032.7 -9.9 -9.999 -99.9 -99.99 -9.99
2020/02/15 16:06 EST    6.83   6.69   15  209   16  26.4  39.9 1032.5 -9.9 -9.999 -99.9 -99.99 -9.99
2020/02/15 16:12 EST    6.85   6.68   13  213   18  26.1  40.1 1032.5 -9.9 -9.999 -99.9 -99.99 -9.99
2020/02/15 16:18 EST    6.86   6.67   12  217   15  26.1  40.1 1032.6 -9.9 -9.999 -99.9 -99.99 -9.99
2020/02/15 16:24 EST    6.88   6.65   13  217   17  26.6  40.1 1032.6 -9.9 -9.999 -99.9 -99.99 -9.99
2020/02/15 16:30 EST    6.89   6.65   12  205   15  26.6  40.1 1032.6 -9.9 -9.999 -99.9 -99.99 -9.99
2020/02/15 16:36 EST    6.89   6.64   15  227   19  26.8  40.1 1032.4 -9.9 -9.999 -99.9 -99.99 -9.99
2020/02/15 16:42 EST    6.89   6.63   12  213   15  27.0  40.1 1032.5 -9.9 -9.999 -99.9 -99.99 -9.99
2020/02/15 16:48 EST    6.88   6.61   13  209   16  27.0  39.9 1032.4 -9.9 -9.999 -99.9 -99.99 -9.99
2020/02/15 16:54 EST    6.87   6.59   12  218   17  27.1  40.1 1032.4 -9.9 -9.999 -99.9 -99.99 -9.99
2020/02/15 17:00 EST    6.86   6.57   12  231   14  27.0  39.9 1032.4 -9.9 -9.999 -99.9 -99.99 -9.99
2020/02/15 17:06 EST    6.83   6.55   13  217   15  27.7  39.9 1032.3 -9.9 -9.999 -99.9 -99.99 -9.99
2020/02/15 17:12 EST    6.81   6.55   13  216   17  27.9  39.9 1032.2 -9.9 -9.999 -99.9 -99.99 -9.99
2020/02/15 17:18 EST    6.77   6.52   12  224   15  27.9  39.9 1032.3 -9.9 -9.999 -99.9 -99.99 -9.99
2020/02/15 17:24 EST    6.73   6.48   11  222   13  28.0  39.9 1032.3 -9.9 -9.999 -99.9 -99.99 -9.99
2020/02/15 17:30 EST    6.68   6.43   10  223   13  28.4  39.9 1032.4 -9.9 -9.999 -99.9 -99.99 -9.99
2020/02/15 17:36 EST    6.63   6.39    9  222   13  28.2  39.9 1032.4 -9.9 -9.999 -99.9 -99.99 -9.99
2020/02/15 17:42 EST    6.56   6.35   10  233   13  28.4  39.9 1032.2 -9.9 -9.999 -99.9 -99.99 -9.99
2020/02/15 17:48 EST    6.49   6.29   10  231   12  28.9  39.9 1032.2 -9.9 -9.999 -99.9 -99.99 -9.99
2020/02/15 17:54 EST    6.41   6.23   11  227   15  29.1  39.9 1032.0 -9.9 -9.999 -99.9 -99.99 -9.99
2020/02/15 18:00 EST    6.31   6.16   11  212   14  29.3  39.9 1031.9 -9.9 -9.999 -99.9 -99.99 -9.99
2020/02/15 18:06 EST    6.21   6.10   10  222   12  29.5  39.9 1032.0 -9.9 -9.999 -99.9 -99.99 -9.99
2020/02/15 18:12 EST    6.10   6.02   10  228   12  29.5  39.9 1032.0 -9.9 -9.999 -99.9 -99.99 -9.99
2020/02/15 18:18 EST    5.98   5.92   10  230   13  29.7  39.7 1032.0 -9.9 -9.999 -99.9 -99.99 -9.99
2020/02/15 18:24 EST    5.86   5.84   10  241   12  29.8  39.7 1032.1 -9.9 -9.999 -99.9 -99.99 -9.99
2020/02/15 18:30 EST    5.72   5.73    8  244   11  30.0  39.7 1031.9 -9.9 -9.999 -99.9 -99.99 -9.99
2020/02/15 18:36 EST    5.57   5.61   10  237   11  30.0  39.7 1031.9 -9.9 -9.999 -99.9 -99.99 -9.99
2020/02/15 18:42 EST    5.41   5.47    8  243   10  30.2  39.7 1031.7 -9.9 -9.999 -99.9 -99.99 -9.99
2020/02/15 18:48 EST    5.25   5.34    9  248   11  30.2  39.9 1031.7 -9.9 -9.999 -99.9 -99.99 -9.99
2020/02/15 18:54 EST    5.08   5.17   11  246   12  30.0  39.9 1031.4 -9.9 -9.999 -99.9 -99.99 -9.99
2020/02/15 19:00 EST    4.90   5.02   12  254   14  30.0  39.9 1031.3 -9.9 -9.999 -99.9 -99.99 -9.99
2020/02/15 19:06 EST    4.71   4.86   11  239   12  30.2  39.9 1031.2 -9.9 -9.999 -99.9 -99.99 -9.99
2020/02/15 19:12 EST    4.52   4.67   11  244   15  30.0  39.9 1031.1 -9.9 -9.999 -99.9 -99.99 -9.99
2020/02/15 19:18 EST    4.33   4.50   11  241   13  30.2  39.9 1031.0 -9.9 -9.999 -99.9 -99.99 -9.99
2020/02/15 19:24 EST    4.13   4.30   12  236   15  30.2  39.9 1030.7 -9.9 -9.999 -99.9 -99.99 -9.99
2020/02/15 19:30 EST    3.93   4.10   13  234   15  30.2  39.9 1030.6 -9.9 -9.999 -99.9 -99.99 -9.99
2020/02/15 19:36 EST    3.72   3.90   12  233   14  30.2  39.7 1030.5 -9.9 -9.999 -99.9 -99.99 -9.99
2020/02/15 19:42 EST    3.52   3.73   11  235   15  30.4  39.7 1030.7 -9.9 -9.999 -99.9 -99.99 -9.99
2020/02/15 19:48 EST    3.31   3.52   11  237   13  30.2  39.7 1030.6 -9.9 -9.999 -99.9 -99.99 -9.99
2020/02/15 19:54 EST    3.11   3.32   13  240   18  30.2  39.7 1030.5 -9.9 -9.999 -99.9 -99.99 -9.99
2020/02/15 20:00 EST    2.91   3.12   13  243   15  30.2  39.6 1030.4 -9.9 -9.999 -99.9 -99.99 -9.99
2020/02/15 20:06 EST    2.72   2.92   12  241   14  30.0  39.6 1030.3 -9.9 -9.999 -99.9 -99.99 -9.99
2020/02/15 20:12 EST    2.52   2.73   11  235   14  30.4  39.7 1030.1 -9.9 -9.999 -99.9 -99.99 -9.99
2020/02/15 20:18 EST    2.34   2.54   13  241   17  30.2  39.7 1030.1 -9.9 -9.999 -99.9 -99.99 -9.99
2020/02/15 20:24 EST    2.16   2.35   14  241   17  30.0  39.6 1030.0 -9.9 -9.999 -99.9 -99.99 -9.99
2020/02/15 20:30 EST    1.99   2.18   12  243   14  30.0  39.7 1030.1 -9.9 -9.999 -99.9 -99.99 -9.99
2020/02/15 20:36 EST    1.82   2.02   12  248   15  30.0  39.7 1030.1 -9.9 -9.999 -99.9 -99.99 -9.99
2020/02/15 20:42 EST    1.66   1.85   13  247   15  29.8  39.7 1030.0 -9.9 -9.999 -99.9 -99.99 -9.99
2020/02/15 20:48 EST    1.52   1.70   13  247   15  29.8  39.7 1030.0 -9.9 -9.999 -99.9 -99.99 -9.99
2020/02/15 20:54 EST    1.38   1.55   12  245   17  29.8  39.6 1029.8 -9.9 -9.999 -99.9 -99.99 -9.99
2020/02/15 21:00 EST    1.25   1.41   14  245   17  29.5  39.6 1029.7 -9.9 -9.999 -99.9 -99.99 -9.99
2020/02/15 21:06 EST    1.13   1.31   12  244   16  29.7  39.6 1029.7 -9.9 -9.999 -99.9 -99.99 -9.99
2020/02/15 21:12 EST    1.02   1.16   13  244   16  29.5  39.6 1029.6 -9.9 -9.999 -99.9 -99.99 -9.99
2020/02/15 21:18 EST    0.92   1.04   11  238   14  29.7  39.6 1029.5 -9.9 -9.999 -99.9 -99.99 -9.99
2020/02/15 21:24 EST    0.83   0.93   11  237   13  29.5  39.6 1029.4 -9.9 -9.999 -99.9 -99.99 -9.99
2020/02/15 21:30 EST    0.74   0.83   12  235   15  29.7  39.4 1029.2 -9.9 -9.999 -99.9 -99.99 -9.99
2020/02/15 21:36 EST    0.67   0.75   11  241   16  29.7  39.4 1029.1 -9.9 -9.999 -99.9 -99.99 -9.99
2020/02/15 21:42 EST    0.60   0.67   11  251   14  29.7  39.2 1029.2 -9.9 -9.999 -99.9 -99.99 -9.99
2020/02/15 21:48 EST    0.54   0.61   12  245   15  29.7  39.2 1029.1 -9.9 -9.999 -99.9 -99.99 -9.99
2020/02/15 21:54 EST    0.49   0.56   12  238   16  29.5  39.2 1029.1 -9.9 -9.999 -99.9 -99.99 -9.99
2020/02/15 22:00 EST    0.44   0.52   13  248   16  29.3  39.2 1029.0 -9.9 -9.999 -99.9 -99.99 -9.99
2020/02/15 22:06 EST    0.39   0.51   13  249   16  29.5  39.2 1029.0 -9.9 -9.999 -99.9 -99.99 -9.99
2020/02/15 22:12 EST    0.36   0.47   12  250   17  29.1  39.2 1029.0 -9.9 -9.999 -99.9 -99.99 -9.99
2020/02/15 22:18 EST    0.32   0.43   10  253   13  29.1  39.2 1029.1 -9.9 -9.999 -99.9 -99.99 -9.99
2020/02/15 22:24 EST    0.29   0.42   11  243   15  29.1  39.0 1029.0 -9.9 -9.999 -99.9 -99.99 -9.99
2020/02/15 22:30 EST    0.26   0.41   12  249   15  29.3  39.0 1028.9 -9.9 -9.999 -99.9 -99.99 -9.99
2020/02/15 22:36 EST    0.24   0.37   12  247   15  29.1  39.0 1028.8 -9.9 -9.999 -99.9 -99.99 -9.99
2020/02/15 22:42 EST    0.22   0.35   10  252   13  29.3  39.0 1028.7 -9.9 -9.999 -99.9 -99.99 -9.99
2020/02/15 22:48 EST    0.20   0.33   11  259   14  29.5  39.0 1028.6 -9.9 -9.999 -99.9 -99.99 -9.99
2020/02/15 22:54 EST    0.18   0.34   13  269   17  29.7  39.0 1028.4 -9.9 -9.999 -99.9 -99.99 -9.99
2020/02/15 23:00 EST    0.17   0.30   15  254   18  29.8  38.8 1028.5 -9.9 -9.999 -99.9 -99.99 -9.99
2020/02/15 23:06 EST    0.16   0.27   11  246   16  29.5  38.8 1028.6 -9.9 -9.999 -99.9 -99.99 -9.99
2020/02/15 23:12 EST    0.15   0.24   14  244   17  29.7  38.8 1028.5 -9.9 -9.999 -99.9 -99.99 -9.99
2020/02/15 23:18 EST    0.15   0.24   13  246   17  29.7  38.8 1028.4 -9.9 -9.999 -99.9 -99.99 -9.99
2020/02/15 23:24 EST    0.15   0.23   14  244   19  29.5  38.8 1028.3 -9.9 -9.999 -99.9 -99.99 -9.99
2020/02/15 23:30 EST    0.16   0.23   12  240   16  29.7  38.8 1028.2 -9.9 -9.999 -99.9 -99.99 -9.99
2020/02/15 23:36 EST    0.18   0.24   12  242   15  29.5  38.8 1028.3 -9.9 -9.999 -99.9 -99.99 -9.99
2020/02/15 23:42 EST    0.20   0.27   11  237   14  29.3  38.8 1028.2 -9.9 -9.999 -99.9 -99.99 -9.99
2020/02/15 23:48 EST    0.24   0.29   12  228   14  29.3  38.8 1028.1 -9.9 -9.999 -99.9 -99.99 -9.99
2020/02/15 23:54 EST    0.28   0.30   13  231   16  29.1  38.7 1028.0 -9.9 -9.999 -99.9 -99.99 -9.99
2020/02/16 00:00 EST    0.34   0.34   13  237   17  29.5  38.7 1028.0 -9.9 -9.999 -99.9 -99.99 -9.99
2020/02/16 00:06 EST    0.40   0.38   13  240   17  29.5  38.7 1028.0 -9.9 -9.999 -99.9 -99.99 -9.99
2020/02/16 00:12 EST    0.48   0.45   14  235   17  29.5  38.7 1028.0 -9.9 -9.999 -99.9 -99.99 -9.99
2020/02/16 00:18 EST    0.58   0.53   14  235   17  29.7  38.7 1027.9 -9.9 -9.999 -99.9 -99.99 -9.99
2020/02/16 00:24 EST    0.68   0.60   13  240   17  29.8  38.7 1027.9 -9.9 -9.999 -99.9 -99.99 -9.99
2020/02/16 00:30 EST    0.80   0.71   12  238   17  29.8  38.7 1027.8 -9.9 -9.999 -99.9 -99.99 -9.99
2020/02/16 00:36 EST    0.94   0.82   11  243   15  29.8  38.5 1027.8 -9.9 -9.999 -99.9 -99.99 -9.99
2020/02/16 00:42 EST    1.09   0.97   13  243   16  30.0  39.0 1027.7 -9.9 -9.999 -99.9 -99.99 -9.99
2020/02/16 00:48 EST    1.25   1.09   14  243   17  30.2  39.2 1027.6 -9.9 -9.999 -99.9 -99.99 -9.99
2020/02/16 00:54 EST    1.43   1.24   12  239   17  30.4  39.2 1027.5 -9.9 -9.999 -99.9 -99.99 -9.99
2020/02/16 01:00 EST    1.62   1.41   13  239   15  30.4  39.2 1027.4 -9.9 -9.999 -99.9 -99.99 -9.99
2020/02/16 01:06 EST    1.83   1.59   12  244   16  30.2  39.2 1027.3 -9.9 -9.999 -99.9 -99.99 -9.99
2020/02/16 01:12 EST    2.04   1.77   11  239   14  30.4  39.2 1027.2 -9.9 -9.999 -99.9 -99.99 -9.99
2020/02/16 01:18 EST    2.27   1.98   13  239   16  30.4  39.2 1026.9 -9.9 -9.999 -99.9 -99.99 -9.99
2020/02/16 01:24 EST    2.50   2.18   12  245   15  30.6  39.2 1027.1 -9.9 -9.999 -99.9 -99.99 -9.99
2020/02/16 01:30 EST    2.75   2.42   14  238   16  30.7  39.2 1026.8 -9.9 -9.999 -99.9 -99.99 -9.99
2020/02/16 01:36 EST    3.00   2.66   12  241   17  30.9  39.2 1026.8 -9.9 -9.999 -99.9 -99.99 -9.99
2020/02/16 01:42 EST    3.25   2.93   13  238   18  30.7  39.2 1026.7 -9.9 -9.999 -99.9 -99.99 -9.99
2020/02/16 01:48 EST    3.50   3.19   12  239   15  30.9  39.2 1026.7 -9.9 -9.999 -99.9 -99.99 -9.99
2020/02/16 01:54 EST    3.76   3.43   12  241   17  31.1  39.4 1026.4 -9.9 -9.999 -99.9 -99.99 -9.99
2020/02/16 02:00 EST    4.02   3.70   11  238   15  31.1  39.4 1026.4 -9.9 -9.999 -99.9 -99.99 -9.99
2020/02/16 02:06 EST    4.27   3.97   12  234   16  31.1  39.6 1026.3 -9.9 -9.999 -99.9 -99.99 -9.99
2020/02/16 02:12 EST    4.52   4.21   13  240   17  31.3  39.6 1026.3 -9.9 -9.999 -99.9 -99.99 -9.99
2020/02/16 02:18 EST    4.76   4.47   12  238   16  31.5  39.6 1026.0 -9.9 -9.999 -99.9 -99.99 -9.99
2020/02/16 02:24 EST    5.00   4.71   11  241   14  31.3  39.6 1026.0 -9.9 -9.999 -99.9 -99.99 -9.99
2020/02/16 02:30 EST    5.23   4.95   12  240   14  31.5  39.6 1026.0 -9.9 -9.999 -99.9 -99.99 -9.99
2020/02/16 02:36 EST    5.45   5.18   11  242   15  31.8  39.7 1025.8 -9.9 -9.999 -99.9 -99.99 -9.99
2020/02/16 02:42 EST    5.65   5.40   11  241   14  31.6  39.7 1025.9 -9.9 -9.999 -99.9 -99.99 -9.99
2020/02/16 02:48 EST    5.85   5.60   11  253   14  31.6  39.7 1025.9 -9.9 -9.999 -99.9 -99.99 -9.99
2020/02/16 02:54 EST    6.04   5.81   11  252   13  31.8  39.7 1025.9 -9.9 -9.999 -99.9 -99.99 -9.99
2020/02/16 03:00 EST    6.21   5.98   12  265   14  32.0  39.7 1025.7 -9.9 -9.999 -99.9 -99.99 -9.99
2020/02/16 03:06 EST    6.37   6.15    9  255   15  32.2  39.7 1025.6 -9.9 -9.999 -99.9 -99.99 -9.99
2020/02/16 03:12 EST    6.52   6.31    9  257   12  31.8  39.7 1025.6 -9.9 -9.999 -99.9 -99.99 -9.99
2020/02/16 03:18 EST    6.66   6.44    8  254   10  32.0  39.7 1025.4 -9.9 -9.999 -99.9 -99.99 -9.99
2020/02/16 03:24 EST    6.78   6.55    8  259   10  32.2  39.7 1025.5 -9.9 -9.999 -99.9 -99.99 -9.99
2020/02/16 03:30 EST    6.90   6.64   11  270   14  32.2  39.7 1025.4 -9.9 -9.999 -99.9 -99.99 -9.99
2020/02/16 03:36 EST    7.00   6.73   11  265   13  32.4  39.7 1025.4 -9.9 -9.999 -99.9 -99.99 -9.99
2020/02/16 03:42 EST    7.09   6.81   11  268   14  32.2  39.7 1025.4 -9.9 -9.999 -99.9 -99.99 -9.99
2020/02/16 03:48 EST    7.18   6.88   11  261   15  32.2  39.7 1025.4 -9.9 -9.999 -99.9 -99.99 -9.99
2020/02/16 03:54 EST    7.25   6.93   13  258   15  32.2  39.6 1025.3 -9.9 -9.999 -99.9 -99.99 -9.99
2020/02/16 04:00 EST    7.31   6.98   12  254   16  32.2  39.6 1025.2 -9.9 -9.999 -99.9 -99.99 -9.99
2020/02/16 04:06 EST    7.37   7.01   11  264   15  32.0  39.7 1025.1 -9.9 -9.999 -99.9 -99.99 -9.99
2020/02/16 04:12 EST    7.42   7.02   11  259   14  32.2  39.7 1025.1 -9.9 -9.999 -99.9 -99.99 -9.99
2020/02/16 04:18 EST    7.46   7.04   11  270   13  32.0  39.7 1025.1 -9.9 -9.999 -99.9 -99.99 -9.99
2020/02/16 04:24 EST    7.50   7.06   11  262   13  32.0  39.7 1025.0 -9.9 -9.999 -99.9 -99.99 -9.99
2020/02/16 04:30 EST    7.53   7.05   10  253   13  32.0  39.7 1025.0 -9.9 -9.999 -99.9 -99.99 -9.99
2020/02/16 04:36 EST    7.56   7.06    9  257   12  32.2  39.7 1025.0 -9.9 -9.999 -99.9 -99.99 -9.99
2020/02/16 04:42 EST    7.58   7.05   10  258   12  32.2  39.7 1024.8 -9.9 -9.999 -99.9 -99.99 -9.99
2020/02/16 04:48 EST    7.60   7.06   11  265   12  32.0  39.7 1024.8 -9.9 -9.999 -99.9 -99.99 -9.99
2020/02/16 04:54 EST    7.61   7.06   10  254   12  32.0  39.7 1024.8 -9.9 -9.999 -99.9 -99.99 -9.99
2020/02/16 05:00 EST    7.62   7.06   10  260   13  32.0  39.7 1024.8 -9.9 -9.999 -99.9 -99.99 -9.99
2020/02/16 05:06 EST    7.62   7.06    9  248   11  32.0  39.7 1024.7 -9.9 -9.999 -99.9 -99.99 -9.99
2020/02/16 05:12 EST    7.62   7.05   11  259   13  32.0  39.6 1024.6 -9.9 -9.999 -99.9 -99.99 -9.99
2020/02/16 05:18 EST    7.62   7.04    9  243   12  32.0  39.6 1024.6 -9.9 -9.999 -99.9 -99.99 -9.99
2020/02/16 05:24 EST    7.60   7.04   10  258   12  32.4  39.6 1024.6 -9.9 -9.999 -99.9 -99.99 -9.99
2020/02/16 05:30 EST    7.59   7.02    9  254   12  32.2  39.6 1024.6 -9.9 -9.999 -99.9 -99.99 -9.99
2020/02/16 05:36 EST    7.56   7.01    9  253   14  32.4  39.6 1024.6 -9.9 -9.999 -99.9 -99.99 -9.99
2020/02/16 05:42 EST    7.53   7.00   10  257   15  32.4  39.2 1024.5 -9.9 -9.999 -99.9 -99.99 -9.99
2020/02/16 05:48 EST    7.50   6.97   11  260   14  32.4  39.2 1024.5 -9.9 -9.999 -99.9 -99.99 -9.99
2020/02/16 05:54 EST    7.45   6.96   10  257   14  32.4  39.2 1024.4 -9.9 -9.999 -99.9 -99.99 -9.99
2020/02/16 06:00 EST    7.40   6.91   10  253   13  32.4  39.4 1024.4 -9.9 -9.999 -99.9 -99.99 -9.99
2020/02/16 06:06 EST    7.34   6.87   10  241   12  32.2  39.6 1024.3 -9.9 -9.999 -99.9 -99.99 -9.99
2020/02/16 06:12 EST    7.27   6.83   10  245   12  32.4  39.6 1024.4 -9.9 -9.999 -99.9 -99.99 -9.99
2020/02/16 06:18 EST    7.19   6.77    9  241   11  32.4  39.2 1024.3 -9.9 -9.999 -99.9 -99.99 -9.99
2020/02/16 06:24 EST    7.11   6.72   10  237   12  32.2  39.2 1024.3 -9.9 -9.999 -99.9 -99.99 -9.99
2020/02/16 06:30 EST    7.01   6.61    9  245   11  32.2  39.2 1024.3 -9.9 -9.999 -99.9 -99.99 -9.99
2020/02/16 06:36 EST    6.90   6.52    9  236   11  32.2  39.2 1024.3 -9.9 -9.999 -99.9 -99.99 -9.99
2020/02/16 06:42 EST    6.78   6.41    9  239   11  32.4  39.2 1024.3 -9.9 -9.999 -99.9 -99.99 -9.99
2020/02/16 06:48 EST    6.66   6.28    8  244   13  32.4  39.2 1024.3 -9.9 -9.999 -99.9 -99.99 -9.99
2020/02/16 06:54 EST    6.52   6.13    9  246   13  32.4  39.2 1024.2 -9.9 -9.999 -99.9 -99.99 -9.99
2020/02/16 07:00 EST    6.37   5.99    8  248   13  32.7  39.2 1024.2 -9.9 -9.999 -99.9 -99.99 -9.99
2020/02/16 07:06 EST    6.22   5.83    9  247   11  32.5  39.2 1024.2 -9.9 -9.999 -99.9 -99.99 -9.99
2020/02/16 07:12 EST    6.05   5.67    8  239   11  32.5  39.2 1024.1 -9.9 -9.999 -99.9 -99.99 -9.99
2020/02/16 07:18 EST    5.88   5.48    9  243   11  32.7  39.2 1024.1 -9.9 -9.999 -99.9 -99.99 -9.99
2020/02/16 07:24 EST    5.70   5.29   10  255   11  32.5  39.2 1024.1 -9.9 -9.999 -99.9 -99.99 -9.99
2020/02/16 07:30 EST    5.51   5.12    9  248   10  32.5  39.4 1024.2 -9.9 -9.999 -99.9 -99.99 -9.99
2020/02/16 07:36 EST    5.32   4.89   11  262   12  32.7  39.4 1024.1 -9.9 -9.999 -99.9 -99.99 -9.99
2020/02/16 07:42 EST    5.12   4.68    9  265   11  32.9  39.2 1024.1 -9.9 -9.999 -99.9 -99.99 -9.99
2020/02/16 07:48 EST    4.92   4.44   10  254   12  32.9  39.0 1024.1 -9.9 -9.999 -99.9 -99.99 -9.99
2020/02/16 07:54 EST    4.71   4.21    9  250   12  32.7  38.8 1024.2 -9.9 -9.999 -99.9 -99.99 -9.99
2020/02/16 08:00 EST    4.50   3.98    9  257   11  32.9  38.7 1024.2 -9.9 -9.999 -99.9 -99.99 -9.99
2020/02/16 08:06 EST    4.29   3.75   10  256   12  32.9  38.7 1024.3 -9.9 -9.999 -99.9 -99.99 -9.99
2020/02/16 08:12 EST    4.08   3.53    9  257   12  33.1  38.7 1024.2 -9.9 -9.999 -99.9 -99.99 -9.99
2020/02/16 08:18 EST    3.86   3.30    9  266   11  33.1  38.7 1024.3 -9.9 -9.999 -99.9 -99.99 -9.99
2020/02/16 08:24 EST    3.65   3.07    8  258   10  33.3  38.7 1024.3 -9.9 -9.999 -99.9 -99.99 -9.99
2020/02/16 08:30 EST    3.45   2.85    9  252   11  33.1  38.5 1024.1 -9.9 -9.999 -99.9 -99.99 -9.99
2020/02/16 08:36 EST    3.24   2.65    9  255   11  33.3  38.7 1024.1 -9.9 -9.999 -99.9 -99.99 -9.99
2020/02/16 08:42 EST    3.04   2.43   10  251   12  33.4  38.7 1024.1 -9.9 -9.999 -99.9 -99.99 -9.99
2020/02/16 08:48 EST    2.85   2.25    9  258   12  33.6  38.8 1024.0 -9.9 -9.999 -99.9 -99.99 -9.99
2020/02/16 08:54 EST    2.66   2.04   10  257   11  33.6  39.0 1023.9 -9.9 -9.999 -99.9 -99.99 -9.99
2020/02/16 09:00 EST    2.47   1.86   11  260   14  33.8  39.0 1023.8 -9.9 -9.999 -99.9 -99.99 -9.99
2020/02/16 09:06 EST    2.30   1.68   10  260   13  34.0  38.8 1023.7 -9.9 -9.999 -99.9 -99.99 -9.99
2020/02/16 09:12 EST    2.13   1.50   11  270   13  34.0  38.7 1023.7 -9.9 -9.999 -99.9 -99.99 -9.99
2020/02/16 09:18 EST    1.97   1.34   12  263   13  34.2  38.7 1023.6 -9.9 -9.999 -99.9 -99.99 -9.99
2020/02/16 09:24 EST    1.82   1.18   11  264   15  34.2  38.7 1023.5 -9.9 -9.999 -99.9 -99.99 -9.99
2020/02/16 09:30 EST    1.68   1.03   11  259   12  34.2  38.8 1023.3 -9.9 -9.999 -99.9 -99.99 -9.99
2020/02/16 09:36 EST    1.55   0.89   11  260   14  34.3  38.8 1023.3 -9.9 -9.999 -99.9 -99.99 -9.99
2020/02/16 09:42 EST    1.42   0.76   12  250   15  34.3  38.7 1023.3 -9.9 -9.999 -99.9 -99.99 -9.99
2020/02/16 09:48 EST    1.30   0.65   11  268   14  34.7  38.7 1023.2 -9.9 -9.999 -99.9 -99.99 -9.99
2020/02/16 09:54 EST    1.19   0.54   11  265   15  34.9  38.7 1023.0 -9.9 -9.999 -99.9 -99.99 -9.99
2020/02/16 10:00 EST    1.09   0.43   12  261   15  34.9  38.7 1022.9 -9.9 -9.999 -99.9 -99.99 -9.99
2020/02/16 10:06 EST    0.99   0.34   10  267   13  35.1  38.7 1022.8 -9.9 -9.999 -99.9 -99.99 -9.99
2020/02/16 10:12 EST    0.90   0.26   11  259   13  35.2  38.8 1022.7 -9.9 -9.999 -99.9 -99.99 -9.99
2020/02/16 10:18 EST    0.82   0.19    9  257   13  35.6  38.7 1022.6 -9.9 -9.999 -99.9 -99.99 -9.99
2020/02/16 10:24 EST    0.74   0.14   10  266   12  35.4  38.7 1022.5 -9.9 -9.999 -99.9 -99.99 -9.99
2020/02/16 10:30 EST    0.66   0.10   11  256   13  35.4  38.7 1022.5 -9.9 -9.999 -99.9 -99.99 -9.99
2020/02/16 10:36 EST    0.59   0.06    9  262   11  35.8  38.7 1022.6 -9.9 -9.999 -99.9 -99.99 -9.99
2020/02/16 10:42 EST    0.52   0.02   10  269   12  35.8  38.7 1022.4 -9.9 -9.999 -99.9 -99.99 -9.99
2020/02/16 10:48 EST    0.45   0.01   11  260   13  35.8  38.7 1022.4 -9.9 -9.999 -99.9 -99.99 -9.99
2020/02/16 10:54 EST    0.39  -0.01    9  273   11  36.1  38.7 1022.4 -9.9 -9.999 -99.9 -99.99 -9.99
2020/02/16 11:00 EST    0.33  -0.03    9  274   11  36.1  38.7 1022.3 -9.9 -9.999 -99.9 -99.99 -9.99
2020/02/16 11:06 EST    0.27  -0.03    8  267   10  36.3  38.7 1022.3 -9.9 -9.999 -99.9 -99.99 -9.99
2020/02/16 11:12 EST    0.21  -0.05   10  275   12  36.3  38.7 1022.2 -9.9 -9.999 -99.9 -99.99 -9.99
2020/02/16 11:18 EST    0.16  -0.06    9  279   11  36.3  38.5 1022.0 -9.9 -9.999 -99.9 -99.99 -9.99
2020/02/16 11:24 EST    0.11  -0.08   10  263   12  36.5  38.7 1021.9 -9.9 -9.999 -99.9 -99.99 -9.99
2020/02/16 11:30 EST    0.06  -0.08   10  271   12  36.5  38.5 1021.8 -9.9 -9.999 -99.9 -99.99 -9.99
2020/02/16 11:36 EST    0.01  -0.09    9  279   12  36.7  38.5 1021.6 -9.9 -9.999 -99.9 -99.99 -9.99
2020/02/16 11:42 EST   -0.03  -0.10    8  270   11  36.7  38.5 1021.6 -9.9 -9.999 -99.9 -99.99 -9.99
2020/02/16 11:48 EST   -0.07  -0.10    8  278   10  36.9  38.5 1021.5 -9.9 -9.999 -99.9 -99.99 -9.99
2020/02/16 11:54 EST   -0.10  -0.10    9  270   10  37.0  38.7 1021.4 -9.9 -9.999 -99.9 -99.99 -9.99
2020/02/16 12:00 EST   -0.13  -0.12    9  280   11  37.0  38.5 1021.4 -9.9 -9.999 -99.9 -99.99 -9.99
2020/02/16 12:06 EST   -0.15  -0.12    7  283   10  37.0  38.5 1021.3 -9.9 -9.999 -99.9 -99.99 -9.99
2020/02/16 12:12 EST   -0.16  -0.11    7  266    9  37.2  38.5 1021.2 -9.9 -9.999 -99.9 -99.99 -9.99
2020/02/16 12:18 EST   -0.16  -0.10    6  267    8  37.2  39.0 1021.2 -9.9 -9.999 -99.9 -99.99 -9.99
2020/02/16 12:24 EST   -0.14  -0.08    6  282    8  37.4  39.0 1021.2 -9.9 -9.999 -99.9 -99.99 -9.99
2020/02/16 12:30 EST   -0.12  -0.03    4  311    6  37.6  39.0 1021.1 -9.9 -9.999 -99.9 -99.99 -9.99
2020/02/16 12:36 EST   -0.08  -0.01    4  318    7  37.6  39.0 1020.9 -9.9 -9.999 -99.9 -99.99 -9.99
2020/02/16 12:42 EST   -0.04   0.04    4  311    5  37.6  39.0 1020.8 -9.9 -9.999 -99.9 -99.99 -9.99
2020/02/16 12:48 EST    0.03   0.10    3  314    4  37.8  39.0 1020.7 -9.9 -9.999 -99.9 -99.99 -9.99
2020/02/16 12:54 EST    0.11   0.16    3  320    4  37.9  39.0 1020.6 -9.9 -9.999 -99.9 -99.99 -9.99
2020/02/16 13:00 EST    0.20   0.24    5  318    5  37.9  39.2 1020.6 -9.9 -9.999 -99.9 -99.99 -9.99
2020/02/16 13:06 EST    0.31   0.33    6  329    7  37.9  39.2 1020.6 -9.9 -9.999 -99.9 -99.99 -9.99
2020/02/16 13:12 EST    0.44   0.44    6  339    7  37.9  39.2 1020.5 -9.9 -9.999 -99.9 -99.99 -9.99
2020/02/16 13:18 EST    0.57   0.55    6  331    8  37.9  39.2 1020.4 -9.9 -9.999 -99.9 -99.99 -9.99
2020/02/16 13:24 EST    0.73   0.67    6  322    7  38.1  39.6 1020.3 -9.9 -9.999 -99.9 -99.99 -9.99
2020/02/16 13:30 EST    0.90   0.83    6  322    7  38.1  39.7 1020.1 -9.9 -9.999 -99.9 -99.99 -9.99
2020/02/16 13:36 EST    1.08   0.98    4  318    6  38.3  39.7 1020.0 -9.9 -9.999 -99.9 -99.99 -9.99
2020/02/16 13:42 EST    1.27   1.16    4  319    4  38.5  39.7 1019.9 -9.9 -9.999 -99.9 -99.99 -9.99
2020/02/16 13:48 EST    1.47   1.33    4  324    5  38.5  39.7 1019.8 -9.9 -9.999 -99.9 -99.99 -9.99
2020/02/16 13:54 EST    1.68   1.52    4  325    5  38.7  39.6 1019.8 -9.9 -9.999 -99.9 -99.99 -9.99
2020/02/16 14:00 EST    1.90   1.71    5  325    5  38.8  39.7 1020.0 -9.9 -9.999 -99.9 -99.99 -9.99
2020/02/16 14:06 EST    2.13   1.90    5  323    5  39.0  39.7 1020.0 -9.9 -9.999 -99.9 -99.99 -9.99
2020/02/16 14:12 EST    2.35   2.12    5  317    6  39.0  39.7 1019.9 -9.9 -9.999 -99.9 -99.99 -9.99
2020/02/16 14:18 EST    2.59   2.32    5  315    6  39.0  39.9 1020.0 -9.9 -9.999 -99.9 -99.99 -9.99
2020/02/16 14:24 EST    2.82   2.54    5  320    7  39.2  39.9 1019.9 -9.9 -9.999 -99.9 -99.99 -9.99
2020/02/16 14:30 EST    3.05   2.76    6  316    7  39.4  39.9 1019.9 -9.9 -9.999 -99.9 -99.99 -9.99
2020/02/16 14:36 EST    3.28   2.97    5  306    6  39.6  39.9 1019.8 -9.9 -9.999 -99.9 -99.99 -9.99
2020/02/16 14:42 EST    3.51   3.20    6  304    7  39.6  40.1 1019.7 -9.9 -9.999 -99.9 -99.99 -9.99
2020/02/16 14:48 EST    3.73   3.42    5  302    6  39.6  40.1 1019.7 -9.9 -9.999 -99.9 -99.99 -9.99
2020/02/16 14:54 EST    3.95   3.66    7  301    7  39.6  40.1 1019.8 -9.9 -9.999 -99.9 -99.99 -9.99
2020/02/16 15:00 EST    4.16   3.87    7  305    7  39.7  40.1 1019.7 -9.9 -9.999 -99.9 -99.99 -9.99
2020/02/16 15:06 EST    4.36   4.08    6  296    6  39.7  40.1 1019.6 -9.9 -9.999 -99.9 -99.99 -9.99
2020/02/16 15:12 EST    4.55   4.28    5  295    6  39.9  40.1 1019.5 -9.9 -9.999 -99.9 -99.99 -9.99
2020/02/16 15:18 EST    4.73   4.49    6  306    7  40.1  40.3 1019.6 -9.9 -9.999 -99.9 -99.99 -9.99
2020/02/16 15:24 EST    4.90   4.68    5  301    7  40.1  40.3 1019.6 -9.9 -9.999 -99.9 -99.99 -9.99
2020/02/16 15:30 EST    5.06   4.86    5  301    7  40.5  40.3 1019.4 -9.9 -9.999 -99.9 -99.99 -9.99
2020/02/16 15:36 EST    5.21   5.04    5  328    6  41.0  40.3 1019.3 -9.9 -9.999 -99.9 -99.99 -9.99
2020/02/16 15:42 EST    5.35   5.21    5  318    6  41.4  40.3 1019.4 -9.9 -9.999 -99.9 -99.99 -9.99
2020/02/16 15:48 EST    5.47   5.37    6  315    7  41.5  40.3 1019.5 -9.9 -9.999 -99.9 -99.99 -9.99
2020/02/16 15:54 EST    5.59   5.51    7  309    8  41.2  40.3 1019.6 -9.9 -9.999 -99.9 -99.99 -9.99
2020/02/16 16:00 EST    5.70   5.64    6  299    7  41.5  40.3 1019.6 -9.9 -9.999 -99.9 -99.99 -9.99
2020/02/16 16:06 EST    5.80   5.76    5  293    7  41.4  40.3 1019.7 -9.9 -9.999 -99.9 -99.99 -9.99
2020/02/16 16:12 EST    5.89   5.88    6  297    8  41.4  40.3 1019.6 -9.9 -9.999 -99.9 -99.99 -9.99
2020/02/16 16:18 EST    5.98   5.98    6  296    8  41.2  40.5 1019.5 -9.9 -9.999 -99.9 -99.99 -9.99
2020/02/16 16:24 EST    6.05   6.07    4  299    7  41.5  40.5 1019.4 -9.9 -9.999 -99.9 -99.99 -9.99
2020/02/16 16:30 EST    6.12   6.14    5  292    6  41.7  40.3 1019.4 -9.9 -9.999 -99.9 -99.99 -9.99
2020/02/16 16:36 EST    6.18   6.21    6  292    6  41.7  40.3 1019.6 -9.9 -9.999 -99.9 -99.99 -9.99
2020/02/16 16:42 EST    6.24   6.25    5  288    6  41.7  40.3 1019.6 -9.9 -9.999 -99.9 -99.99 -9.99
2020/02/16 16:48 EST    6.30   6.29    3  296    6  41.7  40.3 1019.5 -9.9 -9.999 -99.9 -99.99 -9.99
2020/02/16 16:54 EST    6.34   6.33    4  284    4  41.9  40.1 1019.6 -9.9 -9.999 -99.9 -99.99 -9.99
2020/02/16 17:00 EST    6.39   6.36    3  306    4  41.5  40.1 1019.5 -9.9 -9.999 -99.9 -99.99 -9.99
2020/02/16 17:06 EST    6.43   6.38    3  325    3  41.2  40.1 1019.5 -9.9 -9.999 -99.9 -99.99 -9.99
2020/02/16 17:12 EST    6.47   6.39    3  334    3  41.2  40.1 1019.5 -9.9 -9.999 -99.9 -99.99 -9.99
2020/02/16 17:18 EST    6.50   6.39    3  340    3  41.0  40.1 1019.5 -9.9 -9.999 -99.9 -99.99 -9.99
2020/02/16 17:24 EST    6.53   6.40    3  344    3  41.2  40.1 1019.5 -9.9 -9.999 -99.9 -99.99 -9.99
2020/02/16 17:30 EST    6.56   6.41    3  351    3  40.8  40.3 1019.4 -9.9 -9.999 -99.9 -99.99 -9.99
2020/02/16 17:36 EST    6.58   6.41    2    2    3  40.8  40.1 1019.4 -9.9 -9.999 -99.9 -99.99 -9.99
2020/02/16 17:42 EST    6.60   6.41    1    8    2  40.5  40.1 1019.4 -9.9 -9.999 -99.9 -99.99 -9.99
2020/02/16 17:48 EST    6.61   6.41    1  126    1  40.5  40.1 1019.5 -9.9 -9.999 -99.9 -99.99 -9.99
2020/02/16 17:54 EST    6.62   6.41    1  134    1  39.9  40.1 1019.6 -9.9 -9.999 -99.9 -99.99 -9.99
2020/02/16 18:00 EST    6.62   6.40    0  163    1  39.9  40.1 1019.7 -9.9 -9.999 -99.9 -99.99 -9.99
2020/02/16 18:06 EST    6.62   6.39    3  185    3  40.1  40.1 1020.0 -9.9 -9.999 -99.9 -99.99 -9.99
2020/02/16 18:12 EST    6.61   6.38    2  151    4  40.3  40.1 1019.9 -9.9 -9.999 -99.9 -99.99 -9.99
2020/02/16 18:18 EST    6.59   6.36    1  160    1  40.1  40.1 1020.0 -9.9 -9.999 -99.9 -99.99 -9.99
2020/02/16 18:24 EST    6.56   6.34    1  166    1  40.5  40.1 1020.0 -9.9 -9.999 -99.9 -99.99 -9.99
2020/02/16 18:30 EST    6.53   6.32    1  132    2  40.3  39.9 1020.0 -9.9 -9.999 -99.9 -99.99 -9.99
2020/02/16 18:36 EST    6.49   6.29    1  139    1  40.1  39.9 1020.1 -9.9 -9.999 -99.9 -99.99 -9.99
2020/02/16 18:42 EST    6.44   6.26    1  161    1  39.9  39.9 1020.2 -9.9 -9.999 -99.9 -99.99 -9.99
2020/02/16 18:48 EST    6.38   6.22    0  170    0  40.3  39.9 1020.2 -9.9 -9.999 -99.9 -99.99 -9.99
2020/02/16 18:54 EST    6.31   6.18    2  190    2  40.5  39.9 1020.2 -9.9 -9.999 -99.9 -99.99 -9.99
2020/02/16 19:00 EST    6.23   6.13    3  202    4  40.8  39.9 1020.3 -9.9 -9.999 -99.9 -99.99 -9.99
2020/02/16 19:06 EST    6.14   6.07    3  201    4  39.9  39.9 1020.3 -9.9 -9.999 -99.9 -99.99 -9.99
2020/02/16 19:12 EST    6.04   6.01    3  200    5  40.1  39.7 1020.4 -9.9 -9.999 -99.9 -99.99 -9.99
2020/02/16 19:18 EST    5.93   5.94    4  203    4  40.1  39.7 1020.5 -9.9 -9.999 -99.9 -99.99 -9.99
2020/02/16 19:24 EST    5.82   5.86    4  205    4  40.1  39.7 1020.4 -9.9 -9.999 -99.9 -99.99 -9.99
2020/02/16 19:30 EST    5.69   5.77    4  208    4  39.9  39.7 1020.3 -9.9 -9.999 -99.9 -99.99 -9.99
2020/02/16 19:36 EST    5.55   5.67    4  210    4  40.3  39.7 1020.2 -9.9 -9.999 -99.9 -99.99 -9.99
2020/02/16 19:42 EST    5.41   5.56    4  210    4  40.1  39.7 1020.1 -9.9 -9.999 -99.9 -99.99 -9.99
2020/02/16 19:48 EST    5.25   5.44    4  207    4  40.3  39.7 1020.0 -9.9 -9.999 -99.9 -99.99 -9.99
2020/02/16 19:54 EST    5.09   5.31    4  210    4  40.1  39.7 1020.0 -9.9 -9.999 -99.9 -99.99 -9.99
2020/02/16 20:00 EST    4.92   5.16    3  207    4  40.3  39.6 1020.0 -9.9 -9.999 -99.9 -99.99 -9.99
2020/02/16 20:06 EST    4.75   5.02    4  207    4  40.1  39.6 1020.0 -9.9 -9.999 -99.9 -99.99 -9.99
2020/02/16 20:12 EST    4.57   4.86    5  204    5  39.9  39.7 1019.9 -9.9 -9.999 -99.9 -99.99 -9.99
2020/02/16 20:18 EST    4.39   4.69    3  201    5  39.9  39.9 1019.9 -9.9 -9.999 -99.9 -99.99 -9.99
2020/02/16 20:24 EST    4.21   4.52    3  202    4  40.1  39.9 1020.0 -9.9 -9.999 -99.9 -99.99 -9.99
2020/02/16 20:30 EST    4.02   4.35    3  201    4  40.1  40.1 1019.9 -9.9 -9.999 -99.9 -99.99 -9.99
2020/02/16 20:36 EST    3.83   4.17    4  195    4  40.1  39.9 1019.9 -9.9 -9.999 -99.9 -99.99 -9.99
2020/02/16 20:42 EST    3.64   3.99    2  185    4  39.9  40.1 1019.8 -9.9 -9.999 -99.9 -99.99 -9.99
2020/02/16 20:48 EST    3.45   3.81    1  166    2  39.2  40.1 1019.8 -9.9 -9.999 -99.9 -99.99 -9.99
2020/02/16 20:54 EST    3.27   3.62    2  196    3  39.7  40.1 1019.7 -9.9 -9.999 -99.9 -99.99 -9.99
2020/02/16 21:00 EST    3.09   3.44    2  195    3  40.1  40.1 1019.7 -9.9 -9.999 -99.9 -99.99 -9.99
2020/02/16 21:06 EST    2.91   3.25    2  192    3  40.1  40.1 1019.6 -9.9 -9.999 -99.9 -99.99 -9.99
2020/02/16 21:12 EST    2.73   3.06    2  199    3  40.1  40.1 1019.7 -9.9 -9.999 -99.9 -99.99 -9.99
2020/02/16 21:18 EST    2.57   2.88    2  198    3  40.1  40.1 1019.8 -9.9 -9.999 -99.9 -99.99 -9.99
2020/02/16 21:24 EST    2.41   2.70    2  203    2  39.7  40.1 1019.9 -9.9 -9.999 -99.9 -99.99 -9.99
2020/02/16 21:30 EST    2.25   2.53    2  196    3  39.4  40.1 1019.8 -9.9 -9.999 -99.9 -99.99 -9.99
2020/02/16 21:36 EST    2.10   2.37    1  207    1  39.4  39.9 1019.9 -9.9 -9.999 -99.9 -99.99 -9.99
2020/02/16 21:42 EST    1.97   2.21    0  210    1  38.8  40.1 1019.9 -9.9 -9.999 -99.9 -99.99 -9.99
2020/02/16 21:48 EST    1.83   2.05    0  210    0  39.0  40.1 1019.9 -9.9 -9.999 -99.9 -99.99 -9.99
2020/02/16 21:54 EST    1.71   1.91    0  209    0  39.0  40.1 1020.0 -9.9 -9.999 -99.9 -99.99 -9.99
2020/02/16 22:00 EST    1.60   1.77    0  209    0  39.0  39.9 1020.0 -9.9 -9.999 -99.9 -99.99 -9.99
2020/02/16 22:06 EST    1.49   1.63    0  210    0  39.0  39.9 1020.0 -9.9 -9.999 -99.9 -99.99 -9.99
2020/02/16 22:12 EST    1.39   1.51    0  209    0  39.0  39.9 1020.0 -9.9 -9.999 -99.9 -99.99 -9.99
2020/02/16 22:18 EST    1.30   1.39    0   98    0  38.5  39.9 1020.0 -9.9 -9.999 -99.9 -99.99 -9.99
2020/02/16 22:24 EST    1.22   1.28    0   36    1  38.3  39.9 1020.2 -9.9 -9.999 -99.9 -99.99 -9.99
2020/02/16 22:30 EST    1.14   1.18    1  231    2  37.9  39.9 1020.2 -9.9 -9.999 -99.9 -99.99 -9.99
2020/02/16 22:36 EST    1.07   1.09    2  248    2  37.0  39.9 1020.2 -9.9 -9.999 -99.9 -99.99 -9.99
2020/02/16 22:42 EST    1.00   1.01    2  203    2  37.2  39.9 1020.1 -9.9 -9.999 -99.9 -99.99 -9.99
2020/02/16 22:48 EST    0.94   0.94    2  194    3  37.8  39.9 1020.1 -9.9 -9.999 -99.9 -99.99 -9.99
2020/02/16 22:54 EST    0.88   0.89    2  198    2  38.3  39.9 1020.2 -9.9 -9.999 -99.9 -99.99 -9.99
2020/02/16 23:00 EST    0.83   0.85    1  193    2  38.3  39.9 1020.2 -9.9 -9.999 -99.9 -99.99 -9.99
2020/02/16 23:06 EST    0.78   0.80    0  193    1  38.3  39.9 1020.2 -9.9 -9.999 -99.9 -99.99 -9.99
2020/02/16 23:12 EST    0.73   0.78    0   54    1  38.3  39.9 1020.2 -9.9 -9.999 -99.9 -99.99 -9.99
2020/02/16 23:18 EST    0.69   0.76    0    4    1  38.1  39.9 1020.1 -9.9 -9.999 -99.9 -99.99 -9.99
2020/02/16 23:24 EST    0.65   0.74    2  205    2  38.1  39.9 1020.0 -9.9 -9.999 -99.9 -99.99 -9.99
2020/02/16 23:30 EST    0.60   0.73    1  204    3  37.9  39.7 1020.0 -9.9 -9.999 -99.9 -99.99 -9.99
2020/02/16 23:36 EST    0.56   0.72    4  204    4  38.3  39.9 1020.1 -9.9 -9.999 -99.9 -99.99 -9.99
2020/02/16 23:42 EST    0.53   0.68    5  205    6  37.4  39.9 1020.2 -9.9 -9.999 -99.9 -99.99 -9.99
2020/02/16 23:48 EST    0.49   0.66    5  206    6  37.6  39.7 1020.3 -9.9 -9.999 -99.9 -99.99 -9.99
2020/02/16 23:54 EST    0.46   0.68    4  201    5  38.1  39.7 1020.3 -9.9 -9.999 -99.9 -99.99 -9.99
2020/02/17 00:00 EST    0.43   0.69    5  200    6  39.4  39.9 1020.2 -9.9 -9.999 -99.9 -99.99 -9.99
2020/02/17 00:06 EST    0.40   0.67    5  191    6  40.1  39.7 1020.0 -9.9 -9.999 -99.9 -99.99 -9.99
2020/02/17 00:12 EST    0.38   0.66    3  205    6  40.5  39.7 1020.2 -9.9 -9.999 -99.9 -99.99 -9.99
2020/02/17 00:18 EST    0.36   0.67    4  206    5  40.5  39.9 1020.3 -9.9 -9.999 -99.9 -99.99 -9.99
2020/02/17 00:24 EST    0.35   0.67    4  201    5  40.6  39.9 1020.2 -9.9 -9.999 -99.9 -99.99 -9.99
2020/02/17 00:30 EST    0.34   0.67    4  218    5  41.0  39.9 1020.3 -9.9 -9.999 -99.9 -99.99 -9.99
2020/02/17 00:36 EST    0.34   0.68    3  215    4  41.0  39.9 1020.2 -9.9 -9.999 -99.9 -99.99 -9.99
2020/02/17 00:42 EST    0.36   0.69    3  209    4  41.0  39.9 1020.2 -9.9 -9.999 -99.9 -99.99 -9.99
2020/02/17 00:48 EST    0.38   0.71    3  186    4  40.5  39.9 1020.3 -9.9 -9.999 -99.9 -99.99 -9.99
2020/02/17 00:54 EST    0.41   0.74    3  179    4  40.5  39.9 1020.4 -9.9 -9.999 -99.9 -99.99 -9.99
2020/02/17 01:00 EST    0.46   0.78    3  185    5  40.3  40.1 1020.4 -9.9 -9.999 -99.9 -99.99 -9.99
2020/02/17 01:06 EST    0.52   0.84    3  203    4  40.6  40.1 1020.4 -9.9 -9.999 -99.9 -99.99 -9.99
2020/02/17 01:12 EST    0.59   0.91    2  190    3  40.5  40.1 1020.3 -9.9 -9.999 -99.9 -99.99 -9.99
2020/02/17 01:18 EST    0.68   0.99    1  175    2  40.5  40.1 1020.3 -9.9 -9.999 -99.9 -99.99 -9.99
2020/02/17 01:24 EST    0.78   1.08    3  192    3  40.5  40.1 1020.3 -9.9 -9.999 -99.9 -99.99 -9.99
2020/02/17 01:30 EST    0.90   1.19    2  189    4  40.5  40.1 1020.2 -9.9 -9.999 -99.9 -99.99 -9.99
2020/02/17 01:36 EST    1.03   1.31    2  187    3  40.5  40.1 1020.3 -9.9 -9.999 -99.9 -99.99 -9.99
2020/02/17 01:42 EST    1.17   1.44    1  178    2  40.6  40.1 1020.2 -9.9 -9.999 -99.9 -99.99 -9.99
2020/02/17 01:48 EST    1.33   1.59    1  197    2  40.8  40.1 1020.3 -9.9 -9.999 -99.9 -99.99 -9.99
2020/02/17 01:54 EST    1.51   1.75    1  192    2  40.8  40.1 1020.2 -9.9 -9.999 -99.9 -99.99 -9.99
2020/02/17 02:00 EST    1.69   1.92    0  205    1  40.8  40.1 1020.2 -9.9 -9.999 -99.9 -99.99 -9.99
2020/02/17 02:06 EST    1.89   2.10    0  218    1  40.6  40.1 1020.2 -9.9 -9.999 -99.9 -99.99 -9.99
2020/02/17 02:12 EST    2.10   2.28    1  206    2  40.6  39.9 1020.2 -9.9 -9.999 -99.9 -99.99 -9.99
2020/02/17 02:18 EST    2.32   2.47    0  213    1  40.6  40.1 1020.3 -9.9 -9.999 -99.9 -99.99 -9.99
2020/02/17 02:24 EST    2.54   2.67    1  215    1  40.6  40.1 1020.3 -9.9 -9.999 -99.9 -99.99 -9.99
2020/02/17 02:30 EST    2.77   2.88    1  242    2  40.3  39.9 1020.4 -9.9 -9.999 -99.9 -99.99 -9.99
2020/02/17 02:36 EST    3.01   3.10    0  254    2  39.9  40.1 1020.5 -9.9 -9.999 -99.9 -99.99 -9.99
2020/02/17 02:42 EST    3.24   3.33    1  211    3  39.2  40.1 1020.4 -9.9 -9.999 -99.9 -99.99 -9.99
2020/02/17 02:48 EST    3.48   3.56    0  219    1  39.0  39.9 1020.4 -9.9 -9.999 -99.9 -99.99 -9.99
2020/02/17 02:54 EST    3.72   3.79    3    6    5  39.7  39.9 1020.4 -9.9 -9.999 -99.9 -99.99 -9.99
2020/02/17 03:00 EST    3.96   4.02    1  319    4  39.6  40.1 1020.4 -9.9 -9.999 -99.9 -99.99 -9.99
2020/02/17 03:06 EST    4.19   4.26    1    9    3  39.6  40.1 1020.4 -9.9 -9.999 -99.9 -99.99 -9.99
2020/02/17 03:12 EST    4.42   4.49    1   19    3  39.4  40.1 1020.4 -9.9 -9.999 -99.9 -99.99 -9.99
2020/02/17 03:18 EST    4.64   4.72    2   25    3  39.6  40.1 1020.4 -9.9 -9.999 -99.9 -99.99 -9.99
2020/02/17 03:24 EST    4.86   4.95    2   31    2  39.2  40.1 1020.3 -9.9 -9.999 -99.9 -99.99 -9.99
2020/02/17 03:30 EST    5.06   5.17    2   35    4  39.4  40.1 1020.3 -9.9 -9.999 -99.9 -99.99 -9.99
2020/02/17 03:36 EST    5.26   5.39    2   39    3  39.2  40.1 1020.4 -9.9 -9.999 -99.9 -99.99 -9.99
2020/02/17 03:42 EST    5.44   5.59    3   25    3  39.2  40.1 1020.5 -9.9 -9.999 -99.9 -99.99 -9.99
2020/02/17 03:48 EST    5.62   5.79    2   10    4  39.4  40.1 1020.5 -9.9 -9.999 -99.9 -99.99 -9.99
2020/02/17 03:54 EST    5.79   5.99    3    6    5  39.7  40.1 1020.7 -9.9 -9.999 -99.9 -99.99 -9.99
2020/02/17 04:00 EST    5.94   6.17    3  360    6  39.6  40.1 1020.7 -9.9 -9.999 -99.9 -99.99 -9.99
2020/02/17 04:06 EST    6.09   6.34    3  354    4  40.1  40.1 1020.7 -9.9 -9.999 -99.9 -99.99 -9.99
2020/02/17 04:12 EST    6.22   6.51    3  350    4  40.1  40.1 1020.8 -9.9 -9.999 -99.9 -99.99 -9.99
2020/02/17 04:18 EST    6.34   6.66    2  334    4  39.9  40.1 1020.9 -9.9 -9.999 -99.9 -99.99 -9.99
2020/02/17 04:24 EST    6.46   6.80    0  256    3  39.2  40.1 1021.1 -9.9 -9.999 -99.9 -99.99 -9.99
2020/02/17 04:30 EST    6.56   6.93    1  216    2  38.5  40.3 1021.2 -9.9 -9.999 -99.9 -99.99 -9.99
2020/02/17 04:36 EST    6.66   7.05    1  204    2  38.7  40.1 1021.3 -9.9 -9.999 -99.9 -99.99 -9.99
2020/02/17 04:42 EST    6.75   7.16    0  244    1  38.7  40.3 1021.3 -9.9 -9.999 -99.9 -99.99 -9.99
2020/02/17 04:48 EST    6.83   7.25    2  324    3  38.8  40.3 1021.4 -9.9 -9.999 -99.9 -99.99 -9.99
2020/02/17 04:54 EST    6.90   7.34    4  348    4  39.4  40.3 1021.5 -9.9 -9.999 -99.9 -99.99 -9.99
2020/02/17 05:00 EST    6.97   7.42    5    1    5  39.4  40.1 1021.6 -9.9 -9.999 -99.9 -99.99 -9.99
2020/02/17 05:06 EST    7.03   7.47    4    1    5  39.2  40.3 1021.6 -9.9 -9.999 -99.9 -99.99 -9.99
2020/02/17 05:12 EST    7.09   7.52    4    4    4  39.0  40.3 1021.7 -9.9 -9.999 -99.9 -99.99 -9.99
2020/02/17 05:18 EST    7.14   7.56    4   27    4  38.7  40.3 1021.8 -9.9 -9.999 -99.9 -99.99 -9.99
2020/02/17 05:24 EST    7.19   7.59    3   30    3  38.3  40.3 1021.9 -9.9 -9.999 -99.9 -99.99 -9.99
2020/02/17 05:30 EST    7.23   7.60    3   25    4  38.3  40.1 1022.1 -9.9 -9.999 -99.9 -99.99 -9.99
2020/02/17 05:36 EST    7.27   7.61    5   29    6  38.7  40.3 1022.1 -9.9 -9.999 -99.9 -99.99 -9.99
2020/02/17 05:42 EST    7.31   7.62    5   32    6  39.0  40.3 1022.2 -9.9 -9.999 -99.9 -99.99 -9.99
2020/02/17 05:48 EST    7.34   7.63    6   28    7  39.0  40.1 1022.2 -9.9 -9.999 -99.9 -99.99 -9.99
2020/02/17 05:54 EST    7.37   7.63    5   27    7  39.0  40.1 1022.3 -9.9 -9.999 -99.9 -99.99 -9.99
2020/02/17 06:00 EST    7.40   7.63    6   27    7  38.8  40.1 1022.3 -9.9 -9.999 -99.9 -99.99 -9.99
2020/02/17 06:06 EST    7.42   7.63    7   33    8  38.7  40.1 1022.3 -9.9 -9.999 -99.9 -99.99 -9.99
2020/02/17 06:12 EST    7.44   7.63    7   29    8  38.5  40.1 1022.3 -9.9 -9.999 -99.9 -99.99 -9.99
2020/02/17 06:18 EST    7.45   7.63    7   30    7  38.5  40.1 1022.4 -9.9 -9.999 -99.9 -99.99 -9.99
2020/02/17 06:24 EST    7.45   7.62    7   23    8  38.7  40.1 1022.5 -9.9 -9.999 -99.9 -99.99 -9.99
2020/02/17 06:30 EST    7.45   7.61    6   25    9  38.5  40.1 1022.7 -9.9 -9.999 -99.9 -99.99 -9.99
2020/02/17 06:36 EST    7.44   7.60    6   24    7  38.3  40.1 1022.9 -9.9 -9.999 -99.9 -99.99 -9.99
2020/02/17 06:42 EST    7.43   7.58    5   20    6  37.9  40.1 1023.0 -9.9 -9.999 -99.9 -99.99 -9.99
2020/02/17 06:48 EST    7.41   7.56    5   15    5  37.9  40.1 1023.1 -9.9 -9.999 -99.9 -99.99 -9.99
2020/02/17 06:54 EST    7.38   7.53    5   23    6  38.3  39.9 1023.2 -9.9 -9.999 -99.9 -99.99 -9.99
2020/02/17 07:00 EST    7.34   7.49    5   28    6  38.3  40.1 1023.3 -9.9 -9.999 -99.9 -99.99 -9.99
2020/02/17 07:06 EST    7.29   7.44    6   33    6  38.3  40.1 1023.3 -9.9 -9.999 -99.9 -99.99 -9.99
2020/02/17 07:12 EST    7.23   7.40    5   29    6  38.1  40.1 1023.3 -9.9 -9.999 -99.9 -99.99 -9.99
2020/02/17 07:18 EST    7.16   7.33    5   34    6  38.3  40.1 1023.4 -9.9 -9.999 -99.9 -99.99 -9.99
2020/02/17 07:24 EST    7.09   7.26    5   37    6  38.1  40.1 1023.5 -9.9 -9.999 -99.9 -99.99 -9.99
2020/02/17 07:30 EST    7.00   7.19    4   26    5  38.3  39.9 1023.6 -9.9 -9.999 -99.9 -99.99 -9.99
2020/02/17 07:36 EST    6.90   7.09    3   29    4  38.1  39.9 1023.8 -9.9 -9.999 -99.9 -99.99 -9.99
2020/02/17 07:42 EST    6.79   6.98    3   26    4  38.3  39.9 1024.0 -9.9 -9.999 -99.9 -99.99 -9.99
2020/02/17 07:48 EST    6.67   6.87    3   25    3  38.3  39.9 1024.2 -9.9 -9.999 -99.9 -99.99 -9.99
2020/02/17 07:54 EST    6.54   6.75    3   61    3  38.1  39.9 1024.3 -9.9 -9.999 -99.9 -99.99 -9.99
2020/02/17 08:00 EST    6.40   6.61    3   61    4  38.1  39.9 1024.4 -9.9 -9.999 -99.9 -99.99 -9.99
2020/02/17 08:06 EST    6.25   6.46    4   66    5  38.1  39.9 1024.5 -9.9 -9.999 -99.9 -99.99 -9.99
2020/02/17 08:12 EST    6.10   6.30    3   67    5  38.5  40.1 1024.6 -9.9 -9.999 -99.9 -99.99 -9.99
2020/02/17 08:18 EST    5.93   6.13    4   63    5  38.5  40.1 1024.7 -9.9 -9.999 -99.9 -99.99 -9.99
2020/02/17 08:24 EST    5.76 -99.99 -999 -999 -999 -99.9 -99.9 -999.9 -9.9 -9.999 -99.9 -99.99 -9.99